<?xml version="1.0" encoding="UTF-8" standalone="no" ?>
<gpx xmlns="http://www.topografix.com/GPX/1/1" xmlns:xsi="http://www.w3.org/2001/XMLSchema-instance" xsi:schemaLocation="http://www.topografix.com/GPX/1/1 http://www.topografix.com/GPX/1/1/gpx.xsd" version="1.1" creator="VisuGPX - https://www.visugpx.com">
  <metadata>
    <name>De la Croix St Jerome à l\'aqueduc de la Vanne</name>
    <desc><![CDATA[AVF Antony- JCP- De la Croix St Jerome à l\'aqueduc de la Vanne]]></desc>
  </metadata>
  <trk>
    <name><![CDATA[ACTIVE LOG 092]]></name>
    <trkseg>
      <trkpt lat="48.38778" lon="2.51892">
        <ele>43.3966064</ele>
        <time>2012-11-08T09:38:09Z</time>
      </trkpt>
      <trkpt lat="48.38772" lon="2.51891">
        <ele>43.3966064</ele>
        <time>2012-11-08T09:38:39Z</time>
      </trkpt>
      <trkpt lat="48.38778" lon="2.51922">
        <ele>44.3580322</ele>
        <time>2012-11-08T09:39:49Z</time>
      </trkpt>
      <trkpt lat="48.38769" lon="2.51941">
        <ele>45.3192139</ele>
        <time>2012-11-08T09:40:33Z</time>
      </trkpt>
      <trkpt lat="48.38764" lon="2.51978">
        <ele>47.7225342</ele>
        <time>2012-11-08T09:42:36Z</time>
      </trkpt>
      <trkpt lat="48.38759" lon="2.51993">
        <ele>48.2033691</ele>
        <time>2012-11-08T09:42:50Z</time>
      </trkpt>
      <trkpt lat="48.38759" lon="2.52002">
        <ele>48.68396</ele>
        <time>2012-11-08T09:42:55Z</time>
      </trkpt>
      <trkpt lat="48.38749" lon="2.52033">
        <ele>50.1259766</ele>
        <time>2012-11-08T09:43:18Z</time>
      </trkpt>
      <trkpt lat="48.38748" lon="2.52047">
        <ele>50.6065674</ele>
        <time>2012-11-08T09:43:28Z</time>
      </trkpt>
      <trkpt lat="48.3873" lon="2.5208">
        <ele>51.5678711</ele>
        <time>2012-11-08T09:43:52Z</time>
      </trkpt>
      <trkpt lat="48.38727" lon="2.52099">
        <ele>52.048584</ele>
        <time>2012-11-08T09:44:03Z</time>
      </trkpt>
      <trkpt lat="48.3872" lon="2.52146">
        <ele>52.048584</ele>
        <time>2012-11-08T09:44:27Z</time>
      </trkpt>
      <trkpt lat="48.38718" lon="2.52157">
        <ele>52.048584</ele>
        <time>2012-11-08T09:44:34Z</time>
      </trkpt>
      <trkpt lat="48.38711" lon="2.522">
        <ele>52.048584</ele>
        <time>2012-11-08T09:44:57Z</time>
      </trkpt>
      <trkpt lat="48.38702" lon="2.52284">
        <ele>53.9711914</ele>
        <time>2012-11-08T09:45:40Z</time>
      </trkpt>
      <trkpt lat="48.38699" lon="2.523">
        <ele>53.0097656</ele>
        <time>2012-11-08T09:45:51Z</time>
      </trkpt>
      <trkpt lat="48.38698" lon="2.52318">
        <ele>54.4517822</ele>
        <time>2012-11-08T09:46:19Z</time>
      </trkpt>
      <trkpt lat="48.38705" lon="2.52319">
        <ele>55.8937988</ele>
        <time>2012-11-08T09:47:00Z</time>
      </trkpt>
      <trkpt lat="48.38714" lon="2.52319">
        <ele>57.8165283</ele>
        <time>2012-11-08T09:47:20Z</time>
      </trkpt>
      <trkpt lat="48.38727" lon="2.52311">
        <ele>60.2197266</ele>
        <time>2012-11-08T09:47:39Z</time>
      </trkpt>
      <trkpt lat="48.38751" lon="2.52299">
        <ele>63.5843506</ele>
        <time>2012-11-08T09:48:10Z</time>
      </trkpt>
      <trkpt lat="48.38757" lon="2.52285">
        <ele>66.9489746</ele>
        <time>2012-11-08T09:48:27Z</time>
      </trkpt>
      <trkpt lat="48.38768" lon="2.5227">
        <ele>70.3134766</ele>
        <time>2012-11-08T09:48:45Z</time>
      </trkpt>
      <trkpt lat="48.38789" lon="2.52266">
        <ele>73.6782227</ele>
        <time>2012-11-08T09:49:06Z</time>
      </trkpt>
      <trkpt lat="48.38799" lon="2.52266">
        <ele>77.0428467</ele>
        <time>2012-11-08T09:49:19Z</time>
      </trkpt>
      <trkpt lat="48.3881" lon="2.52269">
        <ele>79.9266357</ele>
        <time>2012-11-08T09:49:34Z</time>
      </trkpt>
      <trkpt lat="48.38812" lon="2.52271">
        <ele>82.810791</ele>
        <time>2012-11-08T09:49:54Z</time>
      </trkpt>
      <trkpt lat="48.3883" lon="2.5228">
        <ele>86.6560059</ele>
        <time>2012-11-08T09:50:13Z</time>
      </trkpt>
      <trkpt lat="48.38835" lon="2.52288">
        <ele>89.539917</ele>
        <time>2012-11-08T09:50:26Z</time>
      </trkpt>
      <trkpt lat="48.38838" lon="2.5229">
        <ele>92.4239502</ele>
        <time>2012-11-08T09:50:37Z</time>
      </trkpt>
      <trkpt lat="48.3884" lon="2.52291">
        <ele>96.2692871</ele>
        <time>2012-11-08T09:50:53Z</time>
      </trkpt>
      <trkpt lat="48.38849" lon="2.52299">
        <ele>99.6337891</ele>
        <time>2012-11-08T09:51:08Z</time>
      </trkpt>
      <trkpt lat="48.3886" lon="2.52312">
        <ele>102.998291</ele>
        <time>2012-11-08T09:51:29Z</time>
      </trkpt>
      <trkpt lat="48.38865" lon="2.5231">
        <ele>106.3630371</ele>
        <time>2012-11-08T09:51:48Z</time>
      </trkpt>
      <trkpt lat="48.38867" lon="2.52291">
        <ele>107.8050537</ele>
        <time>2012-11-08T09:52:10Z</time>
      </trkpt>
      <trkpt lat="48.38872" lon="2.52283">
        <ele>109.2469482</ele>
        <time>2012-11-08T09:52:28Z</time>
      </trkpt>
      <trkpt lat="48.38875" lon="2.52282">
        <ele>109.7276611</ele>
        <time>2012-11-08T09:52:44Z</time>
      </trkpt>
      <trkpt lat="48.38882" lon="2.52272">
        <ele>109.7276611</ele>
        <time>2012-11-08T09:53:29Z</time>
      </trkpt>
      <trkpt lat="48.38888" lon="2.52273">
        <ele>109.2469482</ele>
        <time>2012-11-08T09:53:44Z</time>
      </trkpt>
      <trkpt lat="48.38894" lon="2.52276">
        <ele>109.2469482</ele>
        <time>2012-11-08T09:54:00Z</time>
      </trkpt>
      <trkpt lat="48.38909" lon="2.52266">
        <ele>108.2856445</ele>
        <time>2012-11-08T09:54:28Z</time>
      </trkpt>
      <trkpt lat="48.38914" lon="2.52264">
        <ele>104.9210205</ele>
        <time>2012-11-08T09:54:48Z</time>
      </trkpt>
      <trkpt lat="48.38923" lon="2.52252">
        <ele>101.5563965</ele>
        <time>2012-11-08T09:55:15Z</time>
      </trkpt>
      <trkpt lat="48.38919" lon="2.52234">
        <ele>98.1918945</ele>
        <time>2012-11-08T09:55:36Z</time>
      </trkpt>
      <trkpt lat="48.38922" lon="2.52219">
        <ele>97.2304688</ele>
        <time>2012-11-08T09:56:00Z</time>
      </trkpt>
      <trkpt lat="48.3892" lon="2.52212">
        <ele>94.3465576</ele>
        <time>2012-11-08T09:56:22Z</time>
      </trkpt>
      <trkpt lat="48.38922" lon="2.52207">
        <ele>92.4239502</ele>
        <time>2012-11-08T09:56:49Z</time>
      </trkpt>
      <trkpt lat="48.38923" lon="2.52189">
        <ele>90.0206299</ele>
        <time>2012-11-08T09:57:14Z</time>
      </trkpt>
      <trkpt lat="48.38923" lon="2.52187">
        <ele>89.0593262</ele>
        <time>2012-11-08T09:57:23Z</time>
      </trkpt>
      <trkpt lat="48.38898" lon="2.5224">
        <ele>87.1365967</ele>
        <time>2012-11-08T09:57:30Z</time>
      </trkpt>
      <trkpt lat="48.38898" lon="2.5224">
        <ele>85.6945801</ele>
        <time>2012-11-08T09:57:49Z</time>
      </trkpt>
      <trkpt lat="48.38898" lon="2.5224">
        <ele>83.2913818</ele>
        <time>2012-11-08T09:58:06Z</time>
      </trkpt>
      <trkpt lat="48.38948" lon="2.52115">
        <ele>79.9266357</ele>
        <time>2012-11-08T09:58:21Z</time>
      </trkpt>
      <trkpt lat="48.38969" lon="2.5212">
        <ele>78.0040283</ele>
        <time>2012-11-08T09:58:47Z</time>
      </trkpt>
      <trkpt lat="48.3897" lon="2.52113">
        <ele>77.0428467</ele>
        <time>2012-11-08T09:58:53Z</time>
      </trkpt>
      <trkpt lat="48.38978" lon="2.52096">
        <ele>74.6395264</ele>
        <time>2012-11-08T09:59:10Z</time>
      </trkpt>
      <trkpt lat="48.38982" lon="2.52085">
        <ele>72.2362061</ele>
        <time>2012-11-08T09:59:21Z</time>
      </trkpt>
      <trkpt lat="48.38982" lon="2.52073">
        <ele>70.7941895</ele>
        <time>2012-11-08T09:59:29Z</time>
      </trkpt>
      <trkpt lat="48.38984" lon="2.52054">
        <ele>69.3522949</ele>
        <time>2012-11-08T09:59:47Z</time>
      </trkpt>
      <trkpt lat="48.39011" lon="2.52031">
        <ele>67.4296875</ele>
        <time>2012-11-08T10:00:17Z</time>
      </trkpt>
      <trkpt lat="48.39028" lon="2.52027">
        <ele>65.9876709</ele>
        <time>2012-11-08T10:00:41Z</time>
      </trkpt>
      <trkpt lat="48.39052" lon="2.52042">
        <ele>66.4682617</ele>
        <time>2012-11-08T10:01:07Z</time>
      </trkpt>
      <trkpt lat="48.39068" lon="2.52051">
        <ele>66.9489746</ele>
        <time>2012-11-08T10:01:21Z</time>
      </trkpt>
      <trkpt lat="48.39097" lon="2.52053">
        <ele>68.3908691</ele>
        <time>2012-11-08T10:01:47Z</time>
      </trkpt>
      <trkpt lat="48.39105" lon="2.52059">
        <ele>68.3908691</ele>
        <time>2012-11-08T10:02:07Z</time>
      </trkpt>
      <trkpt lat="48.3912" lon="2.52067">
        <ele>68.871582</ele>
        <time>2012-11-08T10:02:19Z</time>
      </trkpt>
      <trkpt lat="48.39137" lon="2.52078">
        <ele>69.8328857</ele>
        <time>2012-11-08T10:02:41Z</time>
      </trkpt>
      <trkpt lat="48.39164" lon="2.52102">
        <ele>72.2362061</ele>
        <time>2012-11-08T10:03:18Z</time>
      </trkpt>
      <trkpt lat="48.39177" lon="2.52114">
        <ele>73.1976318</ele>
        <time>2012-11-08T10:03:41Z</time>
      </trkpt>
      <trkpt lat="48.39185" lon="2.5214">
        <ele>72.2362061</ele>
        <time>2012-11-08T10:03:59Z</time>
      </trkpt>
      <trkpt lat="48.39196" lon="2.52166">
        <ele>71.7554932</ele>
        <time>2012-11-08T10:04:21Z</time>
      </trkpt>
      <trkpt lat="48.39224" lon="2.52197">
        <ele>74.1588135</ele>
        <time>2012-11-08T10:04:57Z</time>
      </trkpt>
      <trkpt lat="48.39241" lon="2.52216">
        <ele>76.5621338</ele>
        <time>2012-11-08T10:05:28Z</time>
      </trkpt>
      <trkpt lat="48.39262" lon="2.52231">
        <ele>78.0040283</ele>
        <time>2012-11-08T10:06:00Z</time>
      </trkpt>
      <trkpt lat="48.39273" lon="2.52257">
        <ele>78.9654541</ele>
        <time>2012-11-08T10:06:19Z</time>
      </trkpt>
      <trkpt lat="48.39283" lon="2.52296">
        <ele>80.4074707</ele>
        <time>2012-11-08T10:06:51Z</time>
      </trkpt>
      <trkpt lat="48.39286" lon="2.52348">
        <ele>82.3300781</ele>
        <time>2012-11-08T10:07:14Z</time>
      </trkpt>
      <trkpt lat="48.39287" lon="2.52385">
        <ele>83.2913818</ele>
        <time>2012-11-08T10:07:35Z</time>
      </trkpt>
      <trkpt lat="48.39286" lon="2.52415">
        <ele>83.7719727</ele>
        <time>2012-11-08T10:07:54Z</time>
      </trkpt>
      <trkpt lat="48.39282" lon="2.52426">
        <ele>84.2526855</ele>
        <time>2012-11-08T10:08:02Z</time>
      </trkpt>
      <trkpt lat="48.39273" lon="2.5245">
        <ele>86.175293</ele>
        <time>2012-11-08T10:08:21Z</time>
      </trkpt>
      <trkpt lat="48.39258" lon="2.52475">
        <ele>86.175293</ele>
        <time>2012-11-08T10:08:42Z</time>
      </trkpt>
      <trkpt lat="48.39257" lon="2.52476">
        <ele>88.0980225</ele>
        <time>2012-11-08T10:08:43Z</time>
      </trkpt>
      <trkpt lat="48.39233" lon="2.52491">
        <ele>90.0206299</ele>
        <time>2012-11-08T10:09:05Z</time>
      </trkpt>
      <trkpt lat="48.392" lon="2.52543">
        <ele>91.9432373</ele>
        <time>2012-11-08T10:09:49Z</time>
      </trkpt>
      <trkpt lat="48.39188" lon="2.52591">
        <ele>93.8658447</ele>
        <time>2012-11-08T10:10:21Z</time>
      </trkpt>
      <trkpt lat="48.39186" lon="2.52612">
        <ele>94.3465576</ele>
        <time>2012-11-08T10:10:43Z</time>
      </trkpt>
      <trkpt lat="48.39178" lon="2.52647">
        <ele>94.8271484</ele>
        <time>2012-11-08T10:11:08Z</time>
      </trkpt>
      <trkpt lat="48.39172" lon="2.52672">
        <ele>95.3077393</ele>
        <time>2012-11-08T10:11:28Z</time>
      </trkpt>
      <trkpt lat="48.39171" lon="2.52693">
        <ele>95.3077393</ele>
        <time>2012-11-08T10:11:45Z</time>
      </trkpt>
      <trkpt lat="48.39172" lon="2.52697">
        <ele>96.7498779</ele>
        <time>2012-11-08T10:11:58Z</time>
      </trkpt>
      <trkpt lat="48.39172" lon="2.52698">
        <ele>95.3077393</ele>
        <time>2012-11-08T10:12:04Z</time>
      </trkpt>
      <trkpt lat="48.39178" lon="2.52719">
        <ele>95.7884521</ele>
        <time>2012-11-08T10:12:29Z</time>
      </trkpt>
      <trkpt lat="48.39183" lon="2.52725">
        <ele>96.2692871</ele>
        <time>2012-11-08T10:12:44Z</time>
      </trkpt>
      <trkpt lat="48.39186" lon="2.52732">
        <ele>99.6337891</ele>
        <time>2012-11-08T10:13:16Z</time>
      </trkpt>
      <trkpt lat="48.39199" lon="2.52747">
        <ele>102.998291</ele>
        <time>2012-11-08T10:13:41Z</time>
      </trkpt>
      <trkpt lat="48.3921" lon="2.52752">
        <ele>105.8824463</ele>
        <time>2012-11-08T10:14:00Z</time>
      </trkpt>
      <trkpt lat="48.3922" lon="2.52753">
        <ele>108.7662354</ele>
        <time>2012-11-08T10:14:24Z</time>
      </trkpt>
      <trkpt lat="48.39224" lon="2.52755">
        <ele>112.1309814</ele>
        <time>2012-11-08T10:14:40Z</time>
      </trkpt>
      <trkpt lat="48.39239" lon="2.52759">
        <ele>115.4956055</ele>
        <time>2012-11-08T10:14:59Z</time>
      </trkpt>
      <trkpt lat="48.39254" lon="2.52769">
        <ele>115.9761963</ele>
        <time>2012-11-08T10:15:22Z</time>
      </trkpt>
      <trkpt lat="48.39265" lon="2.52781">
        <ele>115.9761963</ele>
        <time>2012-11-08T10:15:35Z</time>
      </trkpt>
      <trkpt lat="48.39281" lon="2.52791">
        <ele>116.4567871</ele>
        <time>2012-11-08T10:15:49Z</time>
      </trkpt>
      <trkpt lat="48.39288" lon="2.52789">
        <ele>114.5341797</ele>
        <time>2012-11-08T10:16:01Z</time>
      </trkpt>
      <trkpt lat="48.39289" lon="2.52788">
        <ele>113.0922852</ele>
        <time>2012-11-08T10:16:07Z</time>
      </trkpt>
      <trkpt lat="48.39299" lon="2.5279">
        <ele>110.208252</ele>
        <time>2012-11-08T10:16:27Z</time>
      </trkpt>
      <trkpt lat="48.39308" lon="2.52789">
        <ele>106.8436279</ele>
        <time>2012-11-08T10:16:46Z</time>
      </trkpt>
      <trkpt lat="48.39309" lon="2.52787">
        <ele>103.4790039</ele>
        <time>2012-11-08T10:16:54Z</time>
      </trkpt>
      <trkpt lat="48.39309" lon="2.52787">
        <ele>103.4790039</ele>
        <time>2012-11-08T10:16:55Z</time>
      </trkpt>
      <trkpt lat="48.39311" lon="2.52809">
        <ele>104.4404297</ele>
        <time>2012-11-08T10:17:32Z</time>
      </trkpt>
      <trkpt lat="48.39308" lon="2.52831">
        <ele>108.2856445</ele>
        <time>2012-11-08T10:17:49Z</time>
      </trkpt>
      <trkpt lat="48.393" lon="2.52861">
        <ele>111.6502686</ele>
        <time>2012-11-08T10:18:10Z</time>
      </trkpt>
      <trkpt lat="48.39292" lon="2.52889">
        <ele>113.572998</ele>
        <time>2012-11-08T10:18:33Z</time>
      </trkpt>
      <trkpt lat="48.39284" lon="2.52919">
        <ele>114.0535889</ele>
        <time>2012-11-08T10:18:52Z</time>
      </trkpt>
      <trkpt lat="48.39281" lon="2.52945">
        <ele>114.5341797</ele>
        <time>2012-11-08T10:19:09Z</time>
      </trkpt>
      <trkpt lat="48.39281" lon="2.5295">
        <ele>114.5341797</ele>
        <time>2012-11-08T10:19:41Z</time>
      </trkpt>
      <trkpt lat="48.39281" lon="2.52954">
        <ele>114.0535889</ele>
        <time>2012-11-08T10:20:31Z</time>
      </trkpt>
      <trkpt lat="48.39282" lon="2.52961">
        <ele>113.0922852</ele>
        <time>2012-11-08T10:21:48Z</time>
      </trkpt>
      <trkpt lat="48.39275" lon="2.52987">
        <ele>112.6115723</ele>
        <time>2012-11-08T10:22:07Z</time>
      </trkpt>
      <trkpt lat="48.39274" lon="2.52992">
        <ele>112.6115723</ele>
        <time>2012-11-08T10:22:10Z</time>
      </trkpt>
      <trkpt lat="48.3926" lon="2.53035">
        <ele>112.6115723</ele>
        <time>2012-11-08T10:22:32Z</time>
      </trkpt>
      <trkpt lat="48.3926" lon="2.53071">
        <ele>112.6115723</ele>
        <time>2012-11-08T10:22:52Z</time>
      </trkpt>
      <trkpt lat="48.39255" lon="2.5311">
        <ele>112.1309814</ele>
        <time>2012-11-08T10:23:11Z</time>
      </trkpt>
      <trkpt lat="48.39251" lon="2.53138">
        <ele>112.6115723</ele>
        <time>2012-11-08T10:23:31Z</time>
      </trkpt>
      <trkpt lat="48.39248" lon="2.53159">
        <ele>112.6115723</ele>
        <time>2012-11-08T10:23:47Z</time>
      </trkpt>
      <trkpt lat="48.3924" lon="2.53186">
        <ele>112.1309814</ele>
        <time>2012-11-08T10:24:07Z</time>
      </trkpt>
      <trkpt lat="48.39232" lon="2.53226">
        <ele>111.1695557</ele>
        <time>2012-11-08T10:24:29Z</time>
      </trkpt>
      <trkpt lat="48.39232" lon="2.53254">
        <ele>110.6888428</ele>
        <time>2012-11-08T10:24:45Z</time>
      </trkpt>
      <trkpt lat="48.39232" lon="2.53288">
        <ele>112.1309814</ele>
        <time>2012-11-08T10:25:03Z</time>
      </trkpt>
      <trkpt lat="48.3923" lon="2.5333">
        <ele>110.6888428</ele>
        <time>2012-11-08T10:25:22Z</time>
      </trkpt>
      <trkpt lat="48.39225" lon="2.53377">
        <ele>109.7276611</ele>
        <time>2012-11-08T10:25:47Z</time>
      </trkpt>
      <trkpt lat="48.39231" lon="2.53418">
        <ele>110.6888428</ele>
        <time>2012-11-08T10:26:12Z</time>
      </trkpt>
      <trkpt lat="48.3924" lon="2.53442">
        <ele>112.6115723</ele>
        <time>2012-11-08T10:26:31Z</time>
      </trkpt>
      <trkpt lat="48.39245" lon="2.53473">
        <ele>112.6115723</ele>
        <time>2012-11-08T10:26:50Z</time>
      </trkpt>
      <trkpt lat="48.39248" lon="2.53501">
        <ele>111.1695557</ele>
        <time>2012-11-08T10:27:12Z</time>
      </trkpt>
      <trkpt lat="48.3925" lon="2.53523">
        <ele>111.6502686</ele>
        <time>2012-11-08T10:27:28Z</time>
      </trkpt>
      <trkpt lat="48.39251" lon="2.53542">
        <ele>111.6502686</ele>
        <time>2012-11-08T10:27:45Z</time>
      </trkpt>
      <trkpt lat="48.39258" lon="2.53558">
        <ele>108.7662354</ele>
        <time>2012-11-08T10:28:04Z</time>
      </trkpt>
      <trkpt lat="48.39262" lon="2.53585">
        <ele>107.8050537</ele>
        <time>2012-11-08T10:28:24Z</time>
      </trkpt>
      <trkpt lat="48.39262" lon="2.536">
        <ele>108.2856445</ele>
        <time>2012-11-08T10:28:34Z</time>
      </trkpt>
      <trkpt lat="48.39269" lon="2.53587">
        <ele>107.8050537</ele>
        <time>2012-11-08T10:28:39Z</time>
      </trkpt>
      <trkpt lat="48.39269" lon="2.53587">
        <ele>107.8050537</ele>
        <time>2012-11-08T10:28:55Z</time>
      </trkpt>
      <trkpt lat="48.39269" lon="2.53587">
        <ele>108.2856445</ele>
        <time>2012-11-08T10:29:13Z</time>
      </trkpt>
      <trkpt lat="48.39269" lon="2.53587">
        <ele>108.7662354</ele>
        <time>2012-11-08T10:29:29Z</time>
      </trkpt>
      <trkpt lat="48.39257" lon="2.53722">
        <ele>108.2856445</ele>
        <time>2012-11-08T10:29:51Z</time>
      </trkpt>
      <trkpt lat="48.39257" lon="2.53722">
        <ele>108.2856445</ele>
        <time>2012-11-08T10:30:08Z</time>
      </trkpt>
      <trkpt lat="48.39257" lon="2.53722">
        <ele>108.2856445</ele>
        <time>2012-11-08T10:30:25Z</time>
      </trkpt>
      <trkpt lat="48.39257" lon="2.53722">
        <ele>108.2856445</ele>
        <time>2012-11-08T10:30:45Z</time>
      </trkpt>
      <trkpt lat="48.39257" lon="2.53722">
        <ele>108.7662354</ele>
        <time>2012-11-08T10:31:05Z</time>
      </trkpt>
      <trkpt lat="48.39274" lon="2.53867">
        <ele>107.8050537</ele>
        <time>2012-11-08T10:31:28Z</time>
      </trkpt>
      <trkpt lat="48.39274" lon="2.53867">
        <ele>108.2856445</ele>
        <time>2012-11-08T10:31:53Z</time>
      </trkpt>
      <trkpt lat="48.39274" lon="2.53867">
        <ele>108.7662354</ele>
        <time>2012-11-08T10:32:12Z</time>
      </trkpt>
      <trkpt lat="48.39274" lon="2.53867">
        <ele>108.7662354</ele>
        <time>2012-11-08T10:32:28Z</time>
      </trkpt>
      <trkpt lat="48.39274" lon="2.53867">
        <ele>108.7662354</ele>
        <time>2012-11-08T10:32:49Z</time>
      </trkpt>
      <trkpt lat="48.39274" lon="2.53867">
        <ele>108.7662354</ele>
        <time>2012-11-08T10:33:06Z</time>
      </trkpt>
      <trkpt lat="48.39274" lon="2.53867">
        <ele>108.7662354</ele>
        <time>2012-11-08T10:33:23Z</time>
      </trkpt>
      <trkpt lat="48.39237" lon="2.54006">
        <ele>108.2856445</ele>
        <time>2012-11-08T10:33:43Z</time>
      </trkpt>
      <trkpt lat="48.39237" lon="2.54006">
        <ele>108.2856445</ele>
        <time>2012-11-08T10:34:00Z</time>
      </trkpt>
      <trkpt lat="48.39237" lon="2.54006">
        <ele>109.2469482</ele>
        <time>2012-11-08T10:34:16Z</time>
      </trkpt>
      <trkpt lat="48.39237" lon="2.54006">
        <ele>108.7662354</ele>
        <time>2012-11-08T10:34:48Z</time>
      </trkpt>
      <trkpt lat="48.39237" lon="2.54006">
        <ele>108.7662354</ele>
        <time>2012-11-08T10:35:05Z</time>
      </trkpt>
      <trkpt lat="48.39245" lon="2.54136">
        <ele>109.2469482</ele>
        <time>2012-11-08T10:35:29Z</time>
      </trkpt>
      <trkpt lat="48.39245" lon="2.54136">
        <ele>110.208252</ele>
        <time>2012-11-08T10:35:48Z</time>
      </trkpt>
      <trkpt lat="48.39245" lon="2.54136">
        <ele>109.2469482</ele>
        <time>2012-11-08T10:36:04Z</time>
      </trkpt>
      <trkpt lat="48.39245" lon="2.54136">
        <ele>109.7276611</ele>
        <time>2012-11-08T10:36:11Z</time>
      </trkpt>
      <trkpt lat="48.39245" lon="2.54136">
        <ele>109.2469482</ele>
        <time>2012-11-08T10:36:29Z</time>
      </trkpt>
      <trkpt lat="48.39245" lon="2.54136">
        <ele>110.208252</ele>
        <time>2012-11-08T10:36:37Z</time>
      </trkpt>
      <trkpt lat="48.39245" lon="2.54136">
        <ele>108.7662354</ele>
        <time>2012-11-08T10:36:55Z</time>
      </trkpt>
      <trkpt lat="48.39207" lon="2.54265">
        <ele>109.7276611</ele>
        <time>2012-11-08T10:37:12Z</time>
      </trkpt>
      <trkpt lat="48.39207" lon="2.54265">
        <ele>108.7662354</ele>
        <time>2012-11-08T10:37:28Z</time>
      </trkpt>
      <trkpt lat="48.39207" lon="2.54265">
        <ele>107.3243408</ele>
        <time>2012-11-08T10:37:49Z</time>
      </trkpt>
      <trkpt lat="48.39207" lon="2.54265">
        <ele>105.8824463</ele>
        <time>2012-11-08T10:38:08Z</time>
      </trkpt>
      <trkpt lat="48.39207" lon="2.54265">
        <ele>102.5177002</ele>
        <time>2012-11-08T10:38:27Z</time>
      </trkpt>
      <trkpt lat="48.39207" lon="2.54265">
        <ele>100.114502</ele>
        <time>2012-11-08T10:38:43Z</time>
      </trkpt>
      <trkpt lat="48.39207" lon="2.54265">
        <ele>97.7111816</ele>
        <time>2012-11-08T10:39:02Z</time>
      </trkpt>
      <trkpt lat="48.3922" lon="2.54391">
        <ele>95.7884521</ele>
        <time>2012-11-08T10:39:17Z</time>
      </trkpt>
      <trkpt lat="48.3922" lon="2.54391">
        <ele>95.3077393</ele>
        <time>2012-11-08T10:39:20Z</time>
      </trkpt>
      <trkpt lat="48.39168" lon="2.54422">
        <ele>94.8271484</ele>
        <time>2012-11-08T10:39:23Z</time>
      </trkpt>
      <trkpt lat="48.39168" lon="2.54422">
        <ele>94.8271484</ele>
        <time>2012-11-08T10:39:32Z</time>
      </trkpt>
      <trkpt lat="48.39166" lon="2.54435">
        <ele>92.4239502</ele>
        <time>2012-11-08T10:39:50Z</time>
      </trkpt>
      <trkpt lat="48.39166" lon="2.54435">
        <ele>90.9819336</ele>
        <time>2012-11-08T10:40:08Z</time>
      </trkpt>
      <trkpt lat="48.39159" lon="2.54498">
        <ele>89.0593262</ele>
        <time>2012-11-08T10:40:25Z</time>
      </trkpt>
      <trkpt lat="48.39159" lon="2.54498">
        <ele>87.1365967</ele>
        <time>2012-11-08T10:40:41Z</time>
      </trkpt>
      <trkpt lat="48.39159" lon="2.54498">
        <ele>85.6945801</ele>
        <time>2012-11-08T10:40:56Z</time>
      </trkpt>
      <trkpt lat="48.39159" lon="2.54498">
        <ele>83.7719727</ele>
        <time>2012-11-08T10:41:14Z</time>
      </trkpt>
      <trkpt lat="48.39159" lon="2.54665">
        <ele>81.8493652</ele>
        <time>2012-11-08T10:41:31Z</time>
      </trkpt>
      <trkpt lat="48.39169" lon="2.54623">
        <ele>80.8881836</ele>
        <time>2012-11-08T10:41:46Z</time>
      </trkpt>
      <trkpt lat="48.39167" lon="2.54652">
        <ele>78.9654541</ele>
        <time>2012-11-08T10:42:07Z</time>
      </trkpt>
      <trkpt lat="48.39167" lon="2.54652">
        <ele>78.0040283</ele>
        <time>2012-11-08T10:42:14Z</time>
      </trkpt>
      <trkpt lat="48.39166" lon="2.54658">
        <ele>76.5621338</ele>
        <time>2012-11-08T10:42:30Z</time>
      </trkpt>
      <trkpt lat="48.39157" lon="2.54675">
        <ele>76.5621338</ele>
        <time>2012-11-08T10:42:37Z</time>
      </trkpt>
      <trkpt lat="48.39155" lon="2.54693">
        <ele>76.5621338</ele>
        <time>2012-11-08T10:42:59Z</time>
      </trkpt>
      <trkpt lat="48.39155" lon="2.54693">
        <ele>76.0814209</ele>
        <time>2012-11-08T10:43:21Z</time>
      </trkpt>
      <trkpt lat="48.39155" lon="2.54693">
        <ele>76.5621338</ele>
        <time>2012-11-08T10:44:49Z</time>
      </trkpt>
      <trkpt lat="48.39155" lon="2.54693">
        <ele>75.6008301</ele>
        <time>2012-11-08T10:45:07Z</time>
      </trkpt>
      <trkpt lat="48.39156" lon="2.54877">
        <ele>75.1202393</ele>
        <time>2012-11-08T10:45:27Z</time>
      </trkpt>
      <trkpt lat="48.39156" lon="2.54877">
        <ele>75.1202393</ele>
        <time>2012-11-08T10:45:44Z</time>
      </trkpt>
      <trkpt lat="48.39157" lon="2.54892">
        <ele>75.1202393</ele>
        <time>2012-11-08T10:45:58Z</time>
      </trkpt>
      <trkpt lat="48.39157" lon="2.54892">
        <ele>73.6782227</ele>
        <time>2012-11-08T10:46:17Z</time>
      </trkpt>
      <trkpt lat="48.39157" lon="2.54892">
        <ele>73.6782227</ele>
        <time>2012-11-08T10:46:31Z</time>
      </trkpt>
      <trkpt lat="48.39157" lon="2.54892">
        <ele>73.6782227</ele>
        <time>2012-11-08T10:46:50Z</time>
      </trkpt>
      <trkpt lat="48.39157" lon="2.54892">
        <ele>75.1202393</ele>
        <time>2012-11-08T10:47:13Z</time>
      </trkpt>
      <trkpt lat="48.39167" lon="2.55038">
        <ele>77.0428467</ele>
        <time>2012-11-08T10:47:35Z</time>
      </trkpt>
      <trkpt lat="48.39167" lon="2.55038">
        <ele>77.5234375</ele>
        <time>2012-11-08T10:47:58Z</time>
      </trkpt>
      <trkpt lat="48.39167" lon="2.55038">
        <ele>79.4460449</ele>
        <time>2012-11-08T10:48:29Z</time>
      </trkpt>
      <trkpt lat="48.39167" lon="2.55038">
        <ele>78.0040283</ele>
        <time>2012-11-08T10:48:45Z</time>
      </trkpt>
      <trkpt lat="48.39167" lon="2.55038">
        <ele>75.6008301</ele>
        <time>2012-11-08T10:48:59Z</time>
      </trkpt>
      <trkpt lat="48.39167" lon="2.55038">
        <ele>73.1976318</ele>
        <time>2012-11-08T10:49:17Z</time>
      </trkpt>
      <trkpt lat="48.39112" lon="2.55154">
        <ele>73.1976318</ele>
        <time>2012-11-08T10:49:33Z</time>
      </trkpt>
      <trkpt lat="48.39112" lon="2.55154">
        <ele>73.1976318</ele>
        <time>2012-11-08T10:49:53Z</time>
      </trkpt>
      <trkpt lat="48.391" lon="2.55186">
        <ele>73.1976318</ele>
        <time>2012-11-08T10:50:09Z</time>
      </trkpt>
      <trkpt lat="48.391" lon="2.55186">
        <ele>73.1976318</ele>
        <time>2012-11-08T10:50:29Z</time>
      </trkpt>
      <trkpt lat="48.391" lon="2.55186">
        <ele>73.6782227</ele>
        <time>2012-11-08T10:50:54Z</time>
      </trkpt>
      <trkpt lat="48.391" lon="2.55186">
        <ele>77.0428467</ele>
        <time>2012-11-08T10:51:17Z</time>
      </trkpt>
      <trkpt lat="48.391" lon="2.55186">
        <ele>79.9266357</ele>
        <time>2012-11-08T10:51:33Z</time>
      </trkpt>
      <trkpt lat="48.391" lon="2.55186">
        <ele>81.8493652</ele>
        <time>2012-11-08T10:51:50Z</time>
      </trkpt>
      <trkpt lat="48.391" lon="2.55186">
        <ele>83.7719727</ele>
        <time>2012-11-08T10:52:04Z</time>
      </trkpt>
      <trkpt lat="48.391" lon="2.55186">
        <ele>82.810791</ele>
        <time>2012-11-08T10:52:20Z</time>
      </trkpt>
      <trkpt lat="48.391" lon="2.55186">
        <ele>84.7333984</ele>
        <time>2012-11-08T10:52:39Z</time>
      </trkpt>
      <trkpt lat="48.391" lon="2.55186">
        <ele>85.2139893</ele>
        <time>2012-11-08T10:52:57Z</time>
      </trkpt>
      <trkpt lat="48.39199" lon="2.55179">
        <ele>84.7333984</ele>
        <time>2012-11-08T10:53:13Z</time>
      </trkpt>
      <trkpt lat="48.39199" lon="2.55179">
        <ele>85.6945801</ele>
        <time>2012-11-08T10:53:29Z</time>
      </trkpt>
      <trkpt lat="48.39199" lon="2.55179">
        <ele>86.175293</ele>
        <time>2012-11-08T10:53:31Z</time>
      </trkpt>
      <trkpt lat="48.392" lon="2.5516">
        <ele>87.6171875</ele>
        <time>2012-11-08T10:53:49Z</time>
      </trkpt>
      <trkpt lat="48.392" lon="2.5516">
        <ele>87.6171875</ele>
        <time>2012-11-08T10:54:06Z</time>
      </trkpt>
      <trkpt lat="48.392" lon="2.5516">
        <ele>84.2526855</ele>
        <time>2012-11-08T10:54:25Z</time>
      </trkpt>
      <trkpt lat="48.392" lon="2.5516">
        <ele>80.8881836</ele>
        <time>2012-11-08T10:54:42Z</time>
      </trkpt>
      <trkpt lat="48.392" lon="2.5516">
        <ele>78.0040283</ele>
        <time>2012-11-08T10:55:04Z</time>
      </trkpt>
      <trkpt lat="48.392" lon="2.5516">
        <ele>78.0040283</ele>
        <time>2012-11-08T10:55:18Z</time>
      </trkpt>
      <trkpt lat="48.392" lon="2.5516">
        <ele>78.0040283</ele>
        <time>2012-11-08T10:55:24Z</time>
      </trkpt>
      <trkpt lat="48.392" lon="2.5516">
        <ele>77.5234375</ele>
        <time>2012-11-08T10:55:42Z</time>
      </trkpt>
      <trkpt lat="48.392" lon="2.5516">
        <ele>75.6008301</ele>
        <time>2012-11-08T10:56:06Z</time>
      </trkpt>
      <trkpt lat="48.39297" lon="2.55197">
        <ele>75.1202393</ele>
        <time>2012-11-08T10:56:28Z</time>
      </trkpt>
      <trkpt lat="48.39297" lon="2.55197">
        <ele>75.6008301</ele>
        <time>2012-11-08T10:56:30Z</time>
      </trkpt>
      <trkpt lat="48.39308" lon="2.55215">
        <ele>76.0814209</ele>
        <time>2012-11-08T10:56:50Z</time>
      </trkpt>
      <trkpt lat="48.39308" lon="2.55215">
        <ele>76.0814209</ele>
        <time>2012-11-08T10:56:51Z</time>
      </trkpt>
      <trkpt lat="48.39312" lon="2.55221">
        <ele>76.0814209</ele>
        <time>2012-11-08T10:57:04Z</time>
      </trkpt>
      <trkpt lat="48.39316" lon="2.55224">
        <ele>75.6008301</ele>
        <time>2012-11-08T10:57:25Z</time>
      </trkpt>
      <trkpt lat="48.39379" lon="2.55215">
        <ele>75.6008301</ele>
        <time>2012-11-08T10:57:40Z</time>
      </trkpt>
      <trkpt lat="48.39379" lon="2.55215">
        <ele>75.6008301</ele>
        <time>2012-11-08T10:57:44Z</time>
      </trkpt>
      <trkpt lat="48.39398" lon="2.55226">
        <ele>75.6008301</ele>
        <time>2012-11-08T10:57:53Z</time>
      </trkpt>
      <trkpt lat="48.39398" lon="2.55226">
        <ele>76.5621338</ele>
        <time>2012-11-08T10:58:33Z</time>
      </trkpt>
      <trkpt lat="48.39398" lon="2.55226">
        <ele>77.5234375</ele>
        <time>2012-11-08T10:58:52Z</time>
      </trkpt>
      <trkpt lat="48.39398" lon="2.55226">
        <ele>78.9654541</ele>
        <time>2012-11-08T10:59:11Z</time>
      </trkpt>
      <trkpt lat="48.39398" lon="2.55226">
        <ele>78.9654541</ele>
        <time>2012-11-08T10:59:15Z</time>
      </trkpt>
      <trkpt lat="48.39384" lon="2.55219">
        <ele>79.4460449</ele>
        <time>2012-11-08T10:59:18Z</time>
      </trkpt>
      <trkpt lat="48.39441" lon="2.55114">
        <ele>81.8493652</ele>
        <time>2012-11-08T10:59:35Z</time>
      </trkpt>
      <trkpt lat="48.39441" lon="2.55114">
        <ele>84.7333984</ele>
        <time>2012-11-08T10:59:52Z</time>
      </trkpt>
      <trkpt lat="48.39462" lon="2.55132">
        <ele>85.6945801</ele>
        <time>2012-11-08T10:59:58Z</time>
      </trkpt>
      <trkpt lat="48.39459" lon="2.55116">
        <ele>85.6945801</ele>
        <time>2012-11-08T11:00:04Z</time>
      </trkpt>
      <trkpt lat="48.39459" lon="2.55084">
        <ele>88.5787354</ele>
        <time>2012-11-08T11:00:25Z</time>
      </trkpt>
      <trkpt lat="48.39451" lon="2.55062">
        <ele>89.0593262</ele>
        <time>2012-11-08T11:00:47Z</time>
      </trkpt>
      <trkpt lat="48.39452" lon="2.55047">
        <ele>88.0980225</ele>
        <time>2012-11-08T11:01:07Z</time>
      </trkpt>
      <trkpt lat="48.39458" lon="2.55021">
        <ele>88.0980225</ele>
        <time>2012-11-08T11:01:30Z</time>
      </trkpt>
      <trkpt lat="48.3946" lon="2.54997">
        <ele>88.5787354</ele>
        <time>2012-11-08T11:01:42Z</time>
      </trkpt>
      <trkpt lat="48.39454" lon="2.54966">
        <ele>91.4625244</ele>
        <time>2012-11-08T11:02:00Z</time>
      </trkpt>
      <trkpt lat="48.39446" lon="2.54951">
        <ele>93.8658447</ele>
        <time>2012-11-08T11:02:14Z</time>
      </trkpt>
      <trkpt lat="48.39447" lon="2.54941">
        <ele>94.8271484</ele>
        <time>2012-11-08T11:02:28Z</time>
      </trkpt>
      <trkpt lat="48.39448" lon="2.54929">
        <ele>95.7884521</ele>
        <time>2012-11-08T11:02:53Z</time>
      </trkpt>
      <trkpt lat="48.39449" lon="2.54913">
        <ele>98.1918945</ele>
        <time>2012-11-08T11:03:15Z</time>
      </trkpt>
      <trkpt lat="48.3945" lon="2.54899">
        <ele>101.5563965</ele>
        <time>2012-11-08T11:03:37Z</time>
      </trkpt>
      <trkpt lat="48.3945" lon="2.54896">
        <ele>102.0371094</ele>
        <time>2012-11-08T11:03:39Z</time>
      </trkpt>
      <trkpt lat="48.39455" lon="2.54879">
        <ele>104.4404297</ele>
        <time>2012-11-08T11:03:56Z</time>
      </trkpt>
      <trkpt lat="48.39453" lon="2.54861">
        <ele>107.3243408</ele>
        <time>2012-11-08T11:04:11Z</time>
      </trkpt>
      <trkpt lat="48.39452" lon="2.54849">
        <ele>108.7662354</ele>
        <time>2012-11-08T11:04:26Z</time>
      </trkpt>
      <trkpt lat="48.39442" lon="2.54836">
        <ele>112.1309814</ele>
        <time>2012-11-08T11:04:45Z</time>
      </trkpt>
      <trkpt lat="48.39441" lon="2.54832">
        <ele>115.4956055</ele>
        <time>2012-11-08T11:04:58Z</time>
      </trkpt>
      <trkpt lat="48.3944" lon="2.54829">
        <ele>117.8988037</ele>
        <time>2012-11-08T11:05:09Z</time>
      </trkpt>
      <trkpt lat="48.39448" lon="2.54812">
        <ele>120.302124</ele>
        <time>2012-11-08T11:05:35Z</time>
      </trkpt>
      <trkpt lat="48.39454" lon="2.54794">
        <ele>121.2635498</ele>
        <time>2012-11-08T11:05:54Z</time>
      </trkpt>
      <trkpt lat="48.39452" lon="2.54784">
        <ele>121.7441406</ele>
        <time>2012-11-08T11:06:30Z</time>
      </trkpt>
      <trkpt lat="48.39456" lon="2.54778">
        <ele>123.666748</ele>
        <time>2012-11-08T11:06:50Z</time>
      </trkpt>
      <trkpt lat="48.39453" lon="2.54772">
        <ele>122.7054443</ele>
        <time>2012-11-08T11:07:11Z</time>
      </trkpt>
      <trkpt lat="48.39447" lon="2.54776">
        <ele>123.666748</ele>
        <time>2012-11-08T11:08:40Z</time>
      </trkpt>
      <trkpt lat="48.39441" lon="2.54786">
        <ele>123.666748</ele>
        <time>2012-11-08T11:08:55Z</time>
      </trkpt>
      <trkpt lat="48.39439" lon="2.54794">
        <ele>122.7054443</ele>
        <time>2012-11-08T11:09:03Z</time>
      </trkpt>
      <trkpt lat="48.39425" lon="2.54802">
        <ele>122.7054443</ele>
        <time>2012-11-08T11:09:22Z</time>
      </trkpt>
      <trkpt lat="48.39424" lon="2.54799">
        <ele>124.1473389</ele>
        <time>2012-11-08T11:09:55Z</time>
      </trkpt>
      <trkpt lat="48.39422" lon="2.54796">
        <ele>123.1861572</ele>
        <time>2012-11-08T11:10:21Z</time>
      </trkpt>
      <trkpt lat="48.39422" lon="2.54796">
        <ele>124.1473389</ele>
        <time>2012-11-08T11:11:02Z</time>
      </trkpt>
      <trkpt lat="48.39426" lon="2.54798">
        <ele>122.2247314</ele>
        <time>2012-11-08T11:20:15Z</time>
      </trkpt>
      <trkpt lat="48.39417" lon="2.54797">
        <ele>119.3408203</ele>
        <time>2012-11-08T11:29:21Z</time>
      </trkpt>
      <trkpt lat="48.39419" lon="2.54796">
        <ele>122.2247314</ele>
        <time>2012-11-08T11:41:05Z</time>
      </trkpt>
      <trkpt lat="48.39422" lon="2.54788">
        <ele>124.1473389</ele>
        <time>2012-11-08T12:09:54Z</time>
      </trkpt>
      <trkpt lat="48.39422" lon="2.54786">
        <ele>124.1473389</ele>
        <time>2012-11-08T12:10:17Z</time>
      </trkpt>
      <trkpt lat="48.39423" lon="2.54779">
        <ele>124.1473389</ele>
        <time>2012-11-08T12:10:32Z</time>
      </trkpt>
      <trkpt lat="48.39423" lon="2.54773">
        <ele>123.666748</ele>
        <time>2012-11-08T12:10:37Z</time>
      </trkpt>
      <trkpt lat="48.39424" lon="2.5475">
        <ele>124.6280518</ele>
        <time>2012-11-08T12:10:53Z</time>
      </trkpt>
      <trkpt lat="48.39427" lon="2.54726">
        <ele>123.1861572</ele>
        <time>2012-11-08T12:11:12Z</time>
      </trkpt>
      <trkpt lat="48.3944" lon="2.54717">
        <ele>123.1861572</ele>
        <time>2012-11-08T12:11:32Z</time>
      </trkpt>
      <trkpt lat="48.39444" lon="2.54712">
        <ele>123.1861572</ele>
        <time>2012-11-08T12:11:54Z</time>
      </trkpt>
      <trkpt lat="48.39451" lon="2.54694">
        <ele>121.7441406</ele>
        <time>2012-11-08T12:12:12Z</time>
      </trkpt>
      <trkpt lat="48.39449" lon="2.54667">
        <ele>122.7054443</ele>
        <time>2012-11-08T12:12:33Z</time>
      </trkpt>
      <trkpt lat="48.39449" lon="2.54656">
        <ele>122.2247314</ele>
        <time>2012-11-08T12:12:38Z</time>
      </trkpt>
      <trkpt lat="48.39455" lon="2.54627">
        <ele>124.6280518</ele>
        <time>2012-11-08T12:12:59Z</time>
      </trkpt>
      <trkpt lat="48.39467" lon="2.54601">
        <ele>124.1473389</ele>
        <time>2012-11-08T12:13:23Z</time>
      </trkpt>
      <trkpt lat="48.39478" lon="2.54612">
        <ele>122.7054443</ele>
        <time>2012-11-08T12:13:40Z</time>
      </trkpt>
      <trkpt lat="48.39482" lon="2.54614">
        <ele>119.8214111</ele>
        <time>2012-11-08T12:13:47Z</time>
      </trkpt>
      <trkpt lat="48.39511" lon="2.54605">
        <ele>119.3408203</ele>
        <time>2012-11-08T12:14:12Z</time>
      </trkpt>
      <trkpt lat="48.39513" lon="2.54582">
        <ele>119.8214111</ele>
        <time>2012-11-08T12:14:35Z</time>
      </trkpt>
      <trkpt lat="48.39519" lon="2.54562">
        <ele>118.8601074</ele>
        <time>2012-11-08T12:14:57Z</time>
      </trkpt>
      <trkpt lat="48.3953" lon="2.54557">
        <ele>116.9375</ele>
        <time>2012-11-08T12:15:14Z</time>
      </trkpt>
      <trkpt lat="48.39535" lon="2.54549">
        <ele>113.572998</ele>
        <time>2012-11-08T12:15:28Z</time>
      </trkpt>
      <trkpt lat="48.39547" lon="2.54541">
        <ele>110.6888428</ele>
        <time>2012-11-08T12:15:51Z</time>
      </trkpt>
      <trkpt lat="48.39554" lon="2.54552">
        <ele>108.2856445</ele>
        <time>2012-11-08T12:16:13Z</time>
      </trkpt>
      <trkpt lat="48.3956" lon="2.54567">
        <ele>105.4017334</ele>
        <time>2012-11-08T12:16:27Z</time>
      </trkpt>
      <trkpt lat="48.39558" lon="2.54581">
        <ele>102.998291</ele>
        <time>2012-11-08T12:16:57Z</time>
      </trkpt>
      <trkpt lat="48.39561" lon="2.54599">
        <ele>100.114502</ele>
        <time>2012-11-08T12:17:17Z</time>
      </trkpt>
      <trkpt lat="48.39565" lon="2.54595">
        <ele>95.7884521</ele>
        <time>2012-11-08T12:17:33Z</time>
      </trkpt>
      <trkpt lat="48.39565" lon="2.54595">
        <ele>95.7884521</ele>
        <time>2012-11-08T12:17:34Z</time>
      </trkpt>
      <trkpt lat="48.39583" lon="2.54566">
        <ele>94.8271484</ele>
        <time>2012-11-08T12:17:54Z</time>
      </trkpt>
      <trkpt lat="48.39593" lon="2.5456">
        <ele>90.9819336</ele>
        <time>2012-11-08T12:18:15Z</time>
      </trkpt>
      <trkpt lat="48.39591" lon="2.54534">
        <ele>92.904541</ele>
        <time>2012-11-08T12:18:50Z</time>
      </trkpt>
      <trkpt lat="48.39592" lon="2.5451">
        <ele>94.3465576</ele>
        <time>2012-11-08T12:19:09Z</time>
      </trkpt>
      <trkpt lat="48.3959" lon="2.54506">
        <ele>95.3077393</ele>
        <time>2012-11-08T12:19:13Z</time>
      </trkpt>
      <trkpt lat="48.39578" lon="2.5449">
        <ele>99.1530762</ele>
        <time>2012-11-08T12:19:34Z</time>
      </trkpt>
      <trkpt lat="48.39577" lon="2.54481">
        <ele>97.7111816</ele>
        <time>2012-11-08T12:20:04Z</time>
      </trkpt>
      <trkpt lat="48.39577" lon="2.5448">
        <ele>95.3077393</ele>
        <time>2012-11-08T12:20:45Z</time>
      </trkpt>
      <trkpt lat="48.39579" lon="2.54456">
        <ele>95.7884521</ele>
        <time>2012-11-08T12:21:06Z</time>
      </trkpt>
      <trkpt lat="48.3958" lon="2.5443">
        <ele>97.7111816</ele>
        <time>2012-11-08T12:21:48Z</time>
      </trkpt>
      <trkpt lat="48.3958" lon="2.54428">
        <ele>100.5950928</ele>
        <time>2012-11-08T12:21:57Z</time>
      </trkpt>
      <trkpt lat="48.3958" lon="2.54427">
        <ele>100.5950928</ele>
        <time>2012-11-08T12:21:58Z</time>
      </trkpt>
      <trkpt lat="48.3958" lon="2.54423">
        <ele>99.6337891</ele>
        <time>2012-11-08T12:22:16Z</time>
      </trkpt>
      <trkpt lat="48.39581" lon="2.54405">
        <ele>96.2692871</ele>
        <time>2012-11-08T12:22:38Z</time>
      </trkpt>
      <trkpt lat="48.39579" lon="2.54362">
        <ele>98.1918945</ele>
        <time>2012-11-08T12:23:14Z</time>
      </trkpt>
      <trkpt lat="48.39589" lon="2.54346">
        <ele>100.5950928</ele>
        <time>2012-11-08T12:23:35Z</time>
      </trkpt>
      <trkpt lat="48.39599" lon="2.54329">
        <ele>102.998291</ele>
        <time>2012-11-08T12:23:57Z</time>
      </trkpt>
      <trkpt lat="48.39601" lon="2.54317">
        <ele>105.4017334</ele>
        <time>2012-11-08T12:24:09Z</time>
      </trkpt>
      <trkpt lat="48.39607" lon="2.5431">
        <ele>109.2469482</ele>
        <time>2012-11-08T12:24:23Z</time>
      </trkpt>
      <trkpt lat="48.39604" lon="2.54308">
        <ele>112.1309814</ele>
        <time>2012-11-08T12:24:36Z</time>
      </trkpt>
      <trkpt lat="48.3959" lon="2.54307">
        <ele>115.4956055</ele>
        <time>2012-11-08T12:24:57Z</time>
      </trkpt>
      <trkpt lat="48.39581" lon="2.54301">
        <ele>118.3793945</ele>
        <time>2012-11-08T12:25:13Z</time>
      </trkpt>
      <trkpt lat="48.39574" lon="2.54304">
        <ele>121.7441406</ele>
        <time>2012-11-08T12:25:32Z</time>
      </trkpt>
      <trkpt lat="48.3956" lon="2.54316">
        <ele>124.1473389</ele>
        <time>2012-11-08T12:25:53Z</time>
      </trkpt>
      <trkpt lat="48.3955" lon="2.54332">
        <ele>122.7054443</ele>
        <time>2012-11-08T12:26:19Z</time>
      </trkpt>
      <trkpt lat="48.39541" lon="2.54335">
        <ele>124.1473389</ele>
        <time>2012-11-08T12:26:42Z</time>
      </trkpt>
      <trkpt lat="48.39543" lon="2.5434">
        <ele>122.7054443</ele>
        <time>2012-11-08T12:27:51Z</time>
      </trkpt>
      <trkpt lat="48.39539" lon="2.54344">
        <ele>119.8214111</ele>
        <time>2012-11-08T12:28:22Z</time>
      </trkpt>
      <trkpt lat="48.39533" lon="2.54335">
        <ele>119.8214111</ele>
        <time>2012-11-08T12:28:43Z</time>
      </trkpt>
      <trkpt lat="48.39523" lon="2.54331">
        <ele>123.1861572</ele>
        <time>2012-11-08T12:30:44Z</time>
      </trkpt>
      <trkpt lat="48.39527" lon="2.54291">
        <ele>123.666748</ele>
        <time>2012-11-08T12:31:18Z</time>
      </trkpt>
      <trkpt lat="48.3953" lon="2.5427">
        <ele>124.6280518</ele>
        <time>2012-11-08T12:31:34Z</time>
      </trkpt>
      <trkpt lat="48.39527" lon="2.54236">
        <ele>125.1087646</ele>
        <time>2012-11-08T12:31:50Z</time>
      </trkpt>
      <trkpt lat="48.39535" lon="2.54216">
        <ele>124.6280518</ele>
        <time>2012-11-08T12:32:06Z</time>
      </trkpt>
      <trkpt lat="48.39545" lon="2.54192">
        <ele>124.1473389</ele>
        <time>2012-11-08T12:32:24Z</time>
      </trkpt>
      <trkpt lat="48.39549" lon="2.5418">
        <ele>124.1473389</ele>
        <time>2012-11-08T12:32:32Z</time>
      </trkpt>
      <trkpt lat="48.39563" lon="2.54162">
        <ele>123.666748</ele>
        <time>2012-11-08T12:32:48Z</time>
      </trkpt>
      <trkpt lat="48.39582" lon="2.54148">
        <ele>123.1861572</ele>
        <time>2012-11-08T12:33:10Z</time>
      </trkpt>
      <trkpt lat="48.39591" lon="2.54127">
        <ele>121.2635498</ele>
        <time>2012-11-08T12:33:33Z</time>
      </trkpt>
      <trkpt lat="48.3959" lon="2.54108">
        <ele>120.7828369</ele>
        <time>2012-11-08T12:33:49Z</time>
      </trkpt>
      <trkpt lat="48.39589" lon="2.54093">
        <ele>120.302124</ele>
        <time>2012-11-08T12:34:19Z</time>
      </trkpt>
      <trkpt lat="48.39592" lon="2.54089">
        <ele>124.1473389</ele>
        <time>2012-11-08T12:36:08Z</time>
      </trkpt>
      <trkpt lat="48.39592" lon="2.54088">
        <ele>122.7054443</ele>
        <time>2012-11-08T12:36:16Z</time>
      </trkpt>
      <trkpt lat="48.39602" lon="2.54062">
        <ele>121.2635498</ele>
        <time>2012-11-08T12:36:39Z</time>
      </trkpt>
      <trkpt lat="48.39607" lon="2.54044">
        <ele>121.2635498</ele>
        <time>2012-11-08T12:36:58Z</time>
      </trkpt>
      <trkpt lat="48.39607" lon="2.54041">
        <ele>119.3408203</ele>
        <time>2012-11-08T12:37:20Z</time>
      </trkpt>
      <trkpt lat="48.39619" lon="2.54028">
        <ele>120.302124</ele>
        <time>2012-11-08T12:37:38Z</time>
      </trkpt>
      <trkpt lat="48.3962" lon="2.54008">
        <ele>118.8601074</ele>
        <time>2012-11-08T12:38:01Z</time>
      </trkpt>
      <trkpt lat="48.39619" lon="2.54002">
        <ele>119.3408203</ele>
        <time>2012-11-08T12:38:05Z</time>
      </trkpt>
      <trkpt lat="48.39607" lon="2.53999">
        <ele>122.7054443</ele>
        <time>2012-11-08T12:38:24Z</time>
      </trkpt>
      <trkpt lat="48.39599" lon="2.53991">
        <ele>124.1473389</ele>
        <time>2012-11-08T12:38:37Z</time>
      </trkpt>
      <trkpt lat="48.39592" lon="2.53976">
        <ele>125.5893555</ele>
        <time>2012-11-08T12:38:52Z</time>
      </trkpt>
      <trkpt lat="48.3959" lon="2.53948">
        <ele>125.1087646</ele>
        <time>2012-11-08T12:39:10Z</time>
      </trkpt>
      <trkpt lat="48.3959" lon="2.53943">
        <ele>125.1087646</ele>
        <time>2012-11-08T12:39:14Z</time>
      </trkpt>
      <trkpt lat="48.39593" lon="2.53922">
        <ele>125.5893555</ele>
        <time>2012-11-08T12:39:30Z</time>
      </trkpt>
      <trkpt lat="48.39592" lon="2.53897">
        <ele>123.1861572</ele>
        <time>2012-11-08T12:39:47Z</time>
      </trkpt>
      <trkpt lat="48.39602" lon="2.53875">
        <ele>121.2635498</ele>
        <time>2012-11-08T12:40:09Z</time>
      </trkpt>
      <trkpt lat="48.39611" lon="2.53871">
        <ele>119.3408203</ele>
        <time>2012-11-08T12:40:30Z</time>
      </trkpt>
      <trkpt lat="48.39613" lon="2.53858">
        <ele>118.8601074</ele>
        <time>2012-11-08T12:40:48Z</time>
      </trkpt>
      <trkpt lat="48.39629" lon="2.53849">
        <ele>117.8988037</ele>
        <time>2012-11-08T12:41:07Z</time>
      </trkpt>
      <trkpt lat="48.3964" lon="2.53843">
        <ele>121.2635498</ele>
        <time>2012-11-08T12:41:24Z</time>
      </trkpt>
      <trkpt lat="48.39641" lon="2.53841">
        <ele>122.2247314</ele>
        <time>2012-11-08T12:41:29Z</time>
      </trkpt>
      <trkpt lat="48.39649" lon="2.53827">
        <ele>124.1473389</ele>
        <time>2012-11-08T12:41:49Z</time>
      </trkpt>
      <trkpt lat="48.39647" lon="2.53814">
        <ele>125.1087646</ele>
        <time>2012-11-08T12:42:08Z</time>
      </trkpt>
      <trkpt lat="48.3965" lon="2.53803">
        <ele>124.6280518</ele>
        <time>2012-11-08T12:42:26Z</time>
      </trkpt>
      <trkpt lat="48.39653" lon="2.53795">
        <ele>125.5893555</ele>
        <time>2012-11-08T12:42:42Z</time>
      </trkpt>
      <trkpt lat="48.39652" lon="2.53783">
        <ele>125.5893555</ele>
        <time>2012-11-08T12:42:57Z</time>
      </trkpt>
      <trkpt lat="48.39653" lon="2.5378">
        <ele>126.0699463</ele>
        <time>2012-11-08T12:43:10Z</time>
      </trkpt>
      <trkpt lat="48.39647" lon="2.53784">
        <ele>126.0699463</ele>
        <time>2012-11-08T12:43:20Z</time>
      </trkpt>
      <trkpt lat="48.39631" lon="2.53788">
        <ele>126.0699463</ele>
        <time>2012-11-08T12:43:35Z</time>
      </trkpt>
      <trkpt lat="48.39621" lon="2.53795">
        <ele>125.5893555</ele>
        <time>2012-11-08T12:43:45Z</time>
      </trkpt>
      <trkpt lat="48.39614" lon="2.53792">
        <ele>124.6280518</ele>
        <time>2012-11-08T12:43:51Z</time>
      </trkpt>
      <trkpt lat="48.39611" lon="2.53787">
        <ele>124.6280518</ele>
        <time>2012-11-08T12:43:56Z</time>
      </trkpt>
      <trkpt lat="48.39605" lon="2.53789">
        <ele>123.666748</ele>
        <time>2012-11-08T12:44:02Z</time>
      </trkpt>
      <trkpt lat="48.39588" lon="2.53787">
        <ele>123.666748</ele>
        <time>2012-11-08T12:44:18Z</time>
      </trkpt>
      <trkpt lat="48.39581" lon="2.53789">
        <ele>123.1861572</ele>
        <time>2012-11-08T12:44:28Z</time>
      </trkpt>
      <trkpt lat="48.39573" lon="2.53793">
        <ele>122.2247314</ele>
        <time>2012-11-08T12:44:44Z</time>
      </trkpt>
      <trkpt lat="48.39571" lon="2.53792">
        <ele>122.2247314</ele>
        <time>2012-11-08T12:44:48Z</time>
      </trkpt>
      <trkpt lat="48.39563" lon="2.53786">
        <ele>122.7054443</ele>
        <time>2012-11-08T12:44:57Z</time>
      </trkpt>
      <trkpt lat="48.39554" lon="2.53792">
        <ele>124.1473389</ele>
        <time>2012-11-08T12:45:09Z</time>
      </trkpt>
      <trkpt lat="48.39546" lon="2.53792">
        <ele>124.1473389</ele>
        <time>2012-11-08T12:45:16Z</time>
      </trkpt>
      <trkpt lat="48.39524" lon="2.53794">
        <ele>124.1473389</ele>
        <time>2012-11-08T12:45:36Z</time>
      </trkpt>
      <trkpt lat="48.39522" lon="2.53795">
        <ele>123.666748</ele>
        <time>2012-11-08T12:45:38Z</time>
      </trkpt>
      <trkpt lat="48.39502" lon="2.53788">
        <ele>122.7054443</ele>
        <time>2012-11-08T12:45:56Z</time>
      </trkpt>
      <trkpt lat="48.39497" lon="2.53791">
        <ele>122.7054443</ele>
        <time>2012-11-08T12:46:01Z</time>
      </trkpt>
      <trkpt lat="48.39491" lon="2.53789">
        <ele>122.2247314</ele>
        <time>2012-11-08T12:46:18Z</time>
      </trkpt>
      <trkpt lat="48.39477" lon="2.5379">
        <ele>122.2247314</ele>
        <time>2012-11-08T12:46:36Z</time>
      </trkpt>
      <trkpt lat="48.39477" lon="2.53782">
        <ele>121.7441406</ele>
        <time>2012-11-08T12:47:12Z</time>
      </trkpt>
      <trkpt lat="48.3948" lon="2.53765">
        <ele>122.2247314</ele>
        <time>2012-11-08T12:47:28Z</time>
      </trkpt>
      <trkpt lat="48.39484" lon="2.53751">
        <ele>122.7054443</ele>
        <time>2012-11-08T12:47:40Z</time>
      </trkpt>
      <trkpt lat="48.39495" lon="2.53728">
        <ele>123.1861572</ele>
        <time>2012-11-08T12:47:58Z</time>
      </trkpt>
      <trkpt lat="48.39506" lon="2.53698">
        <ele>122.2247314</ele>
        <time>2012-11-08T12:48:21Z</time>
      </trkpt>
      <trkpt lat="48.39512" lon="2.53671">
        <ele>122.7054443</ele>
        <time>2012-11-08T12:48:38Z</time>
      </trkpt>
      <trkpt lat="48.39513" lon="2.53649">
        <ele>122.2247314</ele>
        <time>2012-11-08T12:48:53Z</time>
      </trkpt>
      <trkpt lat="48.39519" lon="2.53631">
        <ele>121.7441406</ele>
        <time>2012-11-08T12:49:07Z</time>
      </trkpt>
      <trkpt lat="48.39519" lon="2.53624">
        <ele>122.2247314</ele>
        <time>2012-11-08T12:49:11Z</time>
      </trkpt>
      <trkpt lat="48.39518" lon="2.53591">
        <ele>122.2247314</ele>
        <time>2012-11-08T12:49:32Z</time>
      </trkpt>
      <trkpt lat="48.39522" lon="2.53566">
        <ele>121.2635498</ele>
        <time>2012-11-08T12:49:52Z</time>
      </trkpt>
      <trkpt lat="48.39524" lon="2.53543">
        <ele>121.2635498</ele>
        <time>2012-11-08T12:50:12Z</time>
      </trkpt>
      <trkpt lat="48.39527" lon="2.53542">
        <ele>120.302124</ele>
        <time>2012-11-08T12:50:57Z</time>
      </trkpt>
      <trkpt lat="48.39528" lon="2.53544">
        <ele>120.302124</ele>
        <time>2012-11-08T12:51:19Z</time>
      </trkpt>
      <trkpt lat="48.39524" lon="2.5355">
        <ele>119.8214111</ele>
        <time>2012-11-08T12:54:30Z</time>
      </trkpt>
      <trkpt lat="48.39528" lon="2.53523">
        <ele>120.7828369</ele>
        <time>2012-11-08T12:55:08Z</time>
      </trkpt>
      <trkpt lat="48.39532" lon="2.53505">
        <ele>120.302124</ele>
        <time>2012-11-08T12:55:23Z</time>
      </trkpt>
      <trkpt lat="48.39523" lon="2.53466">
        <ele>118.8601074</ele>
        <time>2012-11-08T12:55:41Z</time>
      </trkpt>
      <trkpt lat="48.39524" lon="2.53445">
        <ele>119.3408203</ele>
        <time>2012-11-08T12:55:59Z</time>
      </trkpt>
      <trkpt lat="48.39517" lon="2.53413">
        <ele>117.4182129</ele>
        <time>2012-11-08T12:56:34Z</time>
      </trkpt>
      <trkpt lat="48.39533" lon="2.53364">
        <ele>116.4567871</ele>
        <time>2012-11-08T12:56:59Z</time>
      </trkpt>
      <trkpt lat="48.39535" lon="2.53354">
        <ele>115.9761963</ele>
        <time>2012-11-08T12:57:04Z</time>
      </trkpt>
      <trkpt lat="48.39535" lon="2.53345">
        <ele>115.9761963</ele>
        <time>2012-11-08T12:57:08Z</time>
      </trkpt>
      <trkpt lat="48.39543" lon="2.5331">
        <ele>114.5341797</ele>
        <time>2012-11-08T12:57:28Z</time>
      </trkpt>
      <trkpt lat="48.39552" lon="2.53274">
        <ele>114.0535889</ele>
        <time>2012-11-08T12:57:51Z</time>
      </trkpt>
      <trkpt lat="48.39564" lon="2.53239">
        <ele>113.572998</ele>
        <time>2012-11-08T12:58:13Z</time>
      </trkpt>
      <trkpt lat="48.39573" lon="2.5321">
        <ele>112.6115723</ele>
        <time>2012-11-08T12:58:33Z</time>
      </trkpt>
      <trkpt lat="48.39583" lon="2.53177">
        <ele>111.6502686</ele>
        <time>2012-11-08T12:58:52Z</time>
      </trkpt>
      <trkpt lat="48.39584" lon="2.53174">
        <ele>111.6502686</ele>
        <time>2012-11-08T12:58:54Z</time>
      </trkpt>
      <trkpt lat="48.39588" lon="2.53151">
        <ele>111.1695557</ele>
        <time>2012-11-08T12:59:09Z</time>
      </trkpt>
      <trkpt lat="48.39591" lon="2.53115">
        <ele>110.6888428</ele>
        <time>2012-11-08T12:59:29Z</time>
      </trkpt>
      <trkpt lat="48.39599" lon="2.53076">
        <ele>108.7662354</ele>
        <time>2012-11-08T12:59:53Z</time>
      </trkpt>
      <trkpt lat="48.39596" lon="2.53027">
        <ele>107.8050537</ele>
        <time>2012-11-08T13:00:17Z</time>
      </trkpt>
      <trkpt lat="48.39602" lon="2.52974">
        <ele>106.3630371</ele>
        <time>2012-11-08T13:00:51Z</time>
      </trkpt>
      <trkpt lat="48.39614" lon="2.52954">
        <ele>106.3630371</ele>
        <time>2012-11-08T13:01:13Z</time>
      </trkpt>
      <trkpt lat="48.39624" lon="2.52952">
        <ele>110.208252</ele>
        <time>2012-11-08T13:01:31Z</time>
      </trkpt>
      <trkpt lat="48.39634" lon="2.52953">
        <ele>113.0922852</ele>
        <time>2012-11-08T13:02:00Z</time>
      </trkpt>
      <trkpt lat="48.39648" lon="2.52958">
        <ele>116.4567871</ele>
        <time>2012-11-08T13:02:19Z</time>
      </trkpt>
      <trkpt lat="48.39653" lon="2.52962">
        <ele>119.8214111</ele>
        <time>2012-11-08T13:02:34Z</time>
      </trkpt>
      <trkpt lat="48.39661" lon="2.5297">
        <ele>120.7828369</ele>
        <time>2012-11-08T13:02:52Z</time>
      </trkpt>
      <trkpt lat="48.39669" lon="2.52982">
        <ele>121.7441406</ele>
        <time>2012-11-08T13:03:07Z</time>
      </trkpt>
      <trkpt lat="48.3967" lon="2.52982">
        <ele>121.7441406</ele>
        <time>2012-11-08T13:03:37Z</time>
      </trkpt>
      <trkpt lat="48.39671" lon="2.52982">
        <ele>121.2635498</ele>
        <time>2012-11-08T13:04:11Z</time>
      </trkpt>
      <trkpt lat="48.39673" lon="2.52981">
        <ele>122.2247314</ele>
        <time>2012-11-08T13:04:26Z</time>
      </trkpt>
      <trkpt lat="48.39681" lon="2.52976">
        <ele>121.7441406</ele>
        <time>2012-11-08T13:04:53Z</time>
      </trkpt>
      <trkpt lat="48.39687" lon="2.5298">
        <ele>122.2247314</ele>
        <time>2012-11-08T13:04:59Z</time>
      </trkpt>
      <trkpt lat="48.39694" lon="2.52976">
        <ele>123.1861572</ele>
        <time>2012-11-08T13:05:05Z</time>
      </trkpt>
      <trkpt lat="48.39698" lon="2.52976">
        <ele>123.666748</ele>
        <time>2012-11-08T13:05:16Z</time>
      </trkpt>
      <trkpt lat="48.39704" lon="2.52953">
        <ele>124.6280518</ele>
        <time>2012-11-08T13:05:32Z</time>
      </trkpt>
      <trkpt lat="48.3971" lon="2.5294">
        <ele>125.1087646</ele>
        <time>2012-11-08T13:05:45Z</time>
      </trkpt>
      <trkpt lat="48.39714" lon="2.52936">
        <ele>124.1473389</ele>
        <time>2012-11-08T13:05:50Z</time>
      </trkpt>
      <trkpt lat="48.39719" lon="2.5294">
        <ele>124.1473389</ele>
        <time>2012-11-08T13:05:56Z</time>
      </trkpt>
      <trkpt lat="48.39724" lon="2.52948">
        <ele>124.1473389</ele>
        <time>2012-11-08T13:06:02Z</time>
      </trkpt>
      <trkpt lat="48.39731" lon="2.52946">
        <ele>124.1473389</ele>
        <time>2012-11-08T13:06:08Z</time>
      </trkpt>
      <trkpt lat="48.39745" lon="2.52937">
        <ele>123.666748</ele>
        <time>2012-11-08T13:06:22Z</time>
      </trkpt>
      <trkpt lat="48.39747" lon="2.52937">
        <ele>125.1087646</ele>
        <time>2012-11-08T13:06:25Z</time>
      </trkpt>
      <trkpt lat="48.39747" lon="2.52937">
        <ele>125.5893555</ele>
        <time>2012-11-08T13:06:26Z</time>
      </trkpt>
      <trkpt lat="48.39753" lon="2.52924">
        <ele>126.0699463</ele>
        <time>2012-11-08T13:06:38Z</time>
      </trkpt>
      <trkpt lat="48.39757" lon="2.52917">
        <ele>126.0699463</ele>
        <time>2012-11-08T13:06:44Z</time>
      </trkpt>
      <trkpt lat="48.39761" lon="2.52898">
        <ele>124.1473389</ele>
        <time>2012-11-08T13:06:57Z</time>
      </trkpt>
      <trkpt lat="48.39764" lon="2.52876">
        <ele>124.1473389</ele>
        <time>2012-11-08T13:07:19Z</time>
      </trkpt>
      <trkpt lat="48.39771" lon="2.52866">
        <ele>124.1473389</ele>
        <time>2012-11-08T13:07:29Z</time>
      </trkpt>
      <trkpt lat="48.39776" lon="2.5284">
        <ele>123.1861572</ele>
        <time>2012-11-08T13:07:52Z</time>
      </trkpt>
      <trkpt lat="48.39783" lon="2.52835">
        <ele>121.7441406</ele>
        <time>2012-11-08T13:08:10Z</time>
      </trkpt>
      <trkpt lat="48.39793" lon="2.52821">
        <ele>122.2247314</ele>
        <time>2012-11-08T13:08:29Z</time>
      </trkpt>
      <trkpt lat="48.39807" lon="2.52822">
        <ele>123.1861572</ele>
        <time>2012-11-08T13:08:49Z</time>
      </trkpt>
      <trkpt lat="48.39813" lon="2.52823">
        <ele>123.666748</ele>
        <time>2012-11-08T13:08:56Z</time>
      </trkpt>
      <trkpt lat="48.39823" lon="2.52828">
        <ele>124.6280518</ele>
        <time>2012-11-08T13:09:12Z</time>
      </trkpt>
      <trkpt lat="48.39826" lon="2.52828">
        <ele>124.6280518</ele>
        <time>2012-11-08T13:09:15Z</time>
      </trkpt>
      <trkpt lat="48.39831" lon="2.52827">
        <ele>124.6280518</ele>
        <time>2012-11-08T13:09:19Z</time>
      </trkpt>
      <trkpt lat="48.39837" lon="2.52811">
        <ele>124.6280518</ele>
        <time>2012-11-08T13:09:39Z</time>
      </trkpt>
      <trkpt lat="48.39836" lon="2.52798">
        <ele>124.1473389</ele>
        <time>2012-11-08T13:09:58Z</time>
      </trkpt>
      <trkpt lat="48.39827" lon="2.52787">
        <ele>124.6280518</ele>
        <time>2012-11-08T13:10:44Z</time>
      </trkpt>
      <trkpt lat="48.39815" lon="2.52792">
        <ele>126.0699463</ele>
        <time>2012-11-08T13:11:08Z</time>
      </trkpt>
      <trkpt lat="48.39829" lon="2.52788">
        <ele>124.6280518</ele>
        <time>2012-11-08T13:11:28Z</time>
      </trkpt>
      <trkpt lat="48.3983" lon="2.52771">
        <ele>124.1473389</ele>
        <time>2012-11-08T13:11:41Z</time>
      </trkpt>
      <trkpt lat="48.39824" lon="2.52762">
        <ele>124.1473389</ele>
        <time>2012-11-08T13:11:50Z</time>
      </trkpt>
      <trkpt lat="48.39813" lon="2.52735">
        <ele>125.1087646</ele>
        <time>2012-11-08T13:12:12Z</time>
      </trkpt>
      <trkpt lat="48.39807" lon="2.52719">
        <ele>125.1087646</ele>
        <time>2012-11-08T13:12:27Z</time>
      </trkpt>
      <trkpt lat="48.39792" lon="2.52724">
        <ele>125.1087646</ele>
        <time>2012-11-08T13:12:43Z</time>
      </trkpt>
      <trkpt lat="48.39783" lon="2.52724">
        <ele>124.6280518</ele>
        <time>2012-11-08T13:12:51Z</time>
      </trkpt>
      <trkpt lat="48.39769" lon="2.52697">
        <ele>125.5893555</ele>
        <time>2012-11-08T13:13:14Z</time>
      </trkpt>
      <trkpt lat="48.39779" lon="2.52672">
        <ele>125.5893555</ele>
        <time>2012-11-08T13:13:29Z</time>
      </trkpt>
      <trkpt lat="48.39785" lon="2.52663">
        <ele>126.0699463</ele>
        <time>2012-11-08T13:13:39Z</time>
      </trkpt>
      <trkpt lat="48.39786" lon="2.52631">
        <ele>125.1087646</ele>
        <time>2012-11-08T13:14:00Z</time>
      </trkpt>
      <trkpt lat="48.39797" lon="2.52612">
        <ele>126.0699463</ele>
        <time>2012-11-08T13:14:17Z</time>
      </trkpt>
      <trkpt lat="48.39803" lon="2.5259">
        <ele>125.5893555</ele>
        <time>2012-11-08T13:14:33Z</time>
      </trkpt>
      <trkpt lat="48.39809" lon="2.52575">
        <ele>126.5506592</ele>
        <time>2012-11-08T13:14:48Z</time>
      </trkpt>
      <trkpt lat="48.39822" lon="2.52557">
        <ele>127.0313721</ele>
        <time>2012-11-08T13:15:05Z</time>
      </trkpt>
      <trkpt lat="48.39826" lon="2.52546">
        <ele>127.0313721</ele>
        <time>2012-11-08T13:15:21Z</time>
      </trkpt>
      <trkpt lat="48.39831" lon="2.52531">
        <ele>127.0313721</ele>
        <time>2012-11-08T13:15:34Z</time>
      </trkpt>
      <trkpt lat="48.39832" lon="2.52522">
        <ele>125.5893555</ele>
        <time>2012-11-08T13:15:47Z</time>
      </trkpt>
      <trkpt lat="48.3983" lon="2.52497">
        <ele>125.5893555</ele>
        <time>2012-11-08T13:16:06Z</time>
      </trkpt>
      <trkpt lat="48.3983" lon="2.52474">
        <ele>125.1087646</ele>
        <time>2012-11-08T13:16:21Z</time>
      </trkpt>
      <trkpt lat="48.3983" lon="2.52469">
        <ele>125.1087646</ele>
        <time>2012-11-08T13:16:44Z</time>
      </trkpt>
      <trkpt lat="48.39828" lon="2.52484">
        <ele>125.1087646</ele>
        <time>2012-11-08T13:17:42Z</time>
      </trkpt>
      <trkpt lat="48.39831" lon="2.52473">
        <ele>126.0699463</ele>
        <time>2012-11-08T13:18:00Z</time>
      </trkpt>
      <trkpt lat="48.39842" lon="2.52442">
        <ele>126.0699463</ele>
        <time>2012-11-08T13:18:18Z</time>
      </trkpt>
      <trkpt lat="48.39848" lon="2.52424">
        <ele>126.5506592</ele>
        <time>2012-11-08T13:18:31Z</time>
      </trkpt>
      <trkpt lat="48.39851" lon="2.52413">
        <ele>126.5506592</ele>
        <time>2012-11-08T13:18:50Z</time>
      </trkpt>
      <trkpt lat="48.39857" lon="2.52405">
        <ele>125.5893555</ele>
        <time>2012-11-08T13:19:12Z</time>
      </trkpt>
      <trkpt lat="48.39869" lon="2.52396">
        <ele>126.0699463</ele>
        <time>2012-11-08T13:19:39Z</time>
      </trkpt>
      <trkpt lat="48.39872" lon="2.52362">
        <ele>125.1087646</ele>
        <time>2012-11-08T13:19:58Z</time>
      </trkpt>
      <trkpt lat="48.3988" lon="2.52348">
        <ele>125.5893555</ele>
        <time>2012-11-08T13:20:13Z</time>
      </trkpt>
      <trkpt lat="48.39892" lon="2.52335">
        <ele>126.5506592</ele>
        <time>2012-11-08T13:20:26Z</time>
      </trkpt>
      <trkpt lat="48.39897" lon="2.52329">
        <ele>126.0699463</ele>
        <time>2012-11-08T13:20:31Z</time>
      </trkpt>
      <trkpt lat="48.39903" lon="2.52309">
        <ele>126.0699463</ele>
        <time>2012-11-08T13:20:45Z</time>
      </trkpt>
      <trkpt lat="48.39923" lon="2.52315">
        <ele>126.0699463</ele>
        <time>2012-11-08T13:21:03Z</time>
      </trkpt>
      <trkpt lat="48.39928" lon="2.52318">
        <ele>123.1861572</ele>
        <time>2012-11-08T13:21:18Z</time>
      </trkpt>
      <trkpt lat="48.39937" lon="2.52327">
        <ele>120.302124</ele>
        <time>2012-11-08T13:21:34Z</time>
      </trkpt>
      <trkpt lat="48.39947" lon="2.52316">
        <ele>118.8601074</ele>
        <time>2012-11-08T13:22:06Z</time>
      </trkpt>
      <trkpt lat="48.39947" lon="2.52313">
        <ele>116.9375</ele>
        <time>2012-11-08T13:22:17Z</time>
      </trkpt>
      <trkpt lat="48.39949" lon="2.52299">
        <ele>117.8988037</ele>
        <time>2012-11-08T13:22:37Z</time>
      </trkpt>
      <trkpt lat="48.39955" lon="2.52289">
        <ele>119.8214111</ele>
        <time>2012-11-08T13:23:06Z</time>
      </trkpt>
      <trkpt lat="48.3997" lon="2.52278">
        <ele>120.302124</ele>
        <time>2012-11-08T13:23:22Z</time>
      </trkpt>
      <trkpt lat="48.39991" lon="2.52233">
        <ele>122.7054443</ele>
        <time>2012-11-08T13:24:15Z</time>
      </trkpt>
      <trkpt lat="48.39976" lon="2.52221">
        <ele>124.6280518</ele>
        <time>2012-11-08T13:24:43Z</time>
      </trkpt>
      <trkpt lat="48.39976" lon="2.52221">
        <ele>124.6280518</ele>
        <time>2012-11-08T13:24:44Z</time>
      </trkpt>
      <trkpt lat="48.39961" lon="2.52219">
        <ele>126.5506592</ele>
        <time>2012-11-08T13:25:02Z</time>
      </trkpt>
      <trkpt lat="48.39952" lon="2.52227">
        <ele>126.0699463</ele>
        <time>2012-11-08T13:25:18Z</time>
      </trkpt>
      <trkpt lat="48.39951" lon="2.52228">
        <ele>126.0699463</ele>
        <time>2012-11-08T13:25:20Z</time>
      </trkpt>
      <trkpt lat="48.39938" lon="2.52244">
        <ele>124.6280518</ele>
        <time>2012-11-08T13:25:41Z</time>
      </trkpt>
      <trkpt lat="48.39923" lon="2.52257">
        <ele>127.0313721</ele>
        <time>2012-11-08T13:25:56Z</time>
      </trkpt>
      <trkpt lat="48.39909" lon="2.52257">
        <ele>125.5893555</ele>
        <time>2012-11-08T13:26:11Z</time>
      </trkpt>
      <trkpt lat="48.39894" lon="2.52254">
        <ele>126.5506592</ele>
        <time>2012-11-08T13:26:26Z</time>
      </trkpt>
      <trkpt lat="48.39881" lon="2.52246">
        <ele>127.5119629</ele>
        <time>2012-11-08T13:26:44Z</time>
      </trkpt>
      <trkpt lat="48.39867" lon="2.5224">
        <ele>126.0699463</ele>
        <time>2012-11-08T13:27:05Z</time>
      </trkpt>
      <trkpt lat="48.39862" lon="2.52227">
        <ele>123.1861572</ele>
        <time>2012-11-08T13:27:25Z</time>
      </trkpt>
      <trkpt lat="48.39857" lon="2.52213">
        <ele>121.2635498</ele>
        <time>2012-11-08T13:27:41Z</time>
      </trkpt>
      <trkpt lat="48.39853" lon="2.522">
        <ele>119.8214111</ele>
        <time>2012-11-08T13:28:06Z</time>
      </trkpt>
      <trkpt lat="48.39857" lon="2.52197">
        <ele>116.9375</ele>
        <time>2012-11-08T13:28:17Z</time>
      </trkpt>
      <trkpt lat="48.39865" lon="2.52175">
        <ele>112.6115723</ele>
        <time>2012-11-08T13:28:47Z</time>
      </trkpt>
      <trkpt lat="48.39866" lon="2.52175">
        <ele>112.6115723</ele>
        <time>2012-11-08T13:28:48Z</time>
      </trkpt>
      <trkpt lat="48.39868" lon="2.5216">
        <ele>110.6888428</ele>
        <time>2012-11-08T13:28:57Z</time>
      </trkpt>
      <trkpt lat="48.39867" lon="2.52141">
        <ele>110.6888428</ele>
        <time>2012-11-08T13:29:22Z</time>
      </trkpt>
      <trkpt lat="48.39874" lon="2.5212">
        <ele>107.8050537</ele>
        <time>2012-11-08T13:29:52Z</time>
      </trkpt>
      <trkpt lat="48.39879" lon="2.52108">
        <ele>104.4404297</ele>
        <time>2012-11-08T13:30:11Z</time>
      </trkpt>
      <trkpt lat="48.39884" lon="2.52109">
        <ele>102.0371094</ele>
        <time>2012-11-08T13:30:27Z</time>
      </trkpt>
      <trkpt lat="48.39887" lon="2.52108">
        <ele>98.6724854</ele>
        <time>2012-11-08T13:30:46Z</time>
      </trkpt>
      <trkpt lat="48.39887" lon="2.52106">
        <ele>95.3077393</ele>
        <time>2012-11-08T13:30:59Z</time>
      </trkpt>
      <trkpt lat="48.39893" lon="2.52089">
        <ele>93.8658447</ele>
        <time>2012-11-08T13:31:21Z</time>
      </trkpt>
      <trkpt lat="48.39894" lon="2.52065">
        <ele>96.2692871</ele>
        <time>2012-11-08T13:31:39Z</time>
      </trkpt>
      <trkpt lat="48.39891" lon="2.52058">
        <ele>98.6724854</ele>
        <time>2012-11-08T13:31:44Z</time>
      </trkpt>
      <trkpt lat="48.39887" lon="2.52048">
        <ele>100.114502</ele>
        <time>2012-11-08T13:32:21Z</time>
      </trkpt>
      <trkpt lat="48.39876" lon="2.52035">
        <ele>102.998291</ele>
        <time>2012-11-08T13:32:46Z</time>
      </trkpt>
      <trkpt lat="48.3987" lon="2.52027">
        <ele>102.998291</ele>
        <time>2012-11-08T13:33:06Z</time>
      </trkpt>
      <trkpt lat="48.39873" lon="2.52006">
        <ele>99.6337891</ele>
        <time>2012-11-08T13:33:48Z</time>
      </trkpt>
      <trkpt lat="48.39877" lon="2.51995">
        <ele>96.7498779</ele>
        <time>2012-11-08T13:34:02Z</time>
      </trkpt>
      <trkpt lat="48.39874" lon="2.5198">
        <ele>94.8271484</ele>
        <time>2012-11-08T13:34:16Z</time>
      </trkpt>
      <trkpt lat="48.39874" lon="2.51959">
        <ele>92.4239502</ele>
        <time>2012-11-08T13:34:35Z</time>
      </trkpt>
      <trkpt lat="48.39879" lon="2.51948">
        <ele>90.5013428</ele>
        <time>2012-11-08T13:34:55Z</time>
      </trkpt>
      <trkpt lat="48.39878" lon="2.51945">
        <ele>89.539917</ele>
        <time>2012-11-08T13:34:59Z</time>
      </trkpt>
      <trkpt lat="48.39871" lon="2.51928">
        <ele>88.0980225</ele>
        <time>2012-11-08T13:35:21Z</time>
      </trkpt>
      <trkpt lat="48.39862" lon="2.51912">
        <ele>86.175293</ele>
        <time>2012-11-08T13:35:37Z</time>
      </trkpt>
      <trkpt lat="48.39862" lon="2.51903">
        <ele>83.7719727</ele>
        <time>2012-11-08T13:35:48Z</time>
      </trkpt>
      <trkpt lat="48.39857" lon="2.51879">
        <ele>82.3300781</ele>
        <time>2012-11-08T13:36:07Z</time>
      </trkpt>
      <trkpt lat="48.39856" lon="2.51859">
        <ele>81.3687744</ele>
        <time>2012-11-08T13:36:25Z</time>
      </trkpt>
      <trkpt lat="48.39854" lon="2.51844">
        <ele>82.810791</ele>
        <time>2012-11-08T13:36:56Z</time>
      </trkpt>
      <trkpt lat="48.39848" lon="2.51836">
        <ele>84.7333984</ele>
        <time>2012-11-08T13:37:08Z</time>
      </trkpt>
      <trkpt lat="48.39843" lon="2.51812">
        <ele>86.6560059</ele>
        <time>2012-11-08T13:37:26Z</time>
      </trkpt>
      <trkpt lat="48.39843" lon="2.51778">
        <ele>88.0980225</ele>
        <time>2012-11-08T13:37:46Z</time>
      </trkpt>
      <trkpt lat="48.39832" lon="2.51752">
        <ele>90.0206299</ele>
        <time>2012-11-08T13:38:04Z</time>
      </trkpt>
      <trkpt lat="48.39823" lon="2.51757">
        <ele>92.904541</ele>
        <time>2012-11-08T13:38:20Z</time>
      </trkpt>
      <trkpt lat="48.39815" lon="2.51767">
        <ele>95.7884521</ele>
        <time>2012-11-08T13:38:36Z</time>
      </trkpt>
      <trkpt lat="48.39803" lon="2.51777">
        <ele>99.6337891</ele>
        <time>2012-11-08T13:38:55Z</time>
      </trkpt>
      <trkpt lat="48.39802" lon="2.51778">
        <ele>99.6337891</ele>
        <time>2012-11-08T13:38:56Z</time>
      </trkpt>
      <trkpt lat="48.39794" lon="2.51803">
        <ele>101.0756836</ele>
        <time>2012-11-08T13:39:15Z</time>
      </trkpt>
      <trkpt lat="48.3978" lon="2.51815">
        <ele>101.0756836</ele>
        <time>2012-11-08T13:39:32Z</time>
      </trkpt>
      <trkpt lat="48.39771" lon="2.51812">
        <ele>98.1918945</ele>
        <time>2012-11-08T13:39:43Z</time>
      </trkpt>
      <trkpt lat="48.39758" lon="2.51807">
        <ele>99.1530762</ele>
        <time>2012-11-08T13:40:01Z</time>
      </trkpt>
      <trkpt lat="48.39751" lon="2.51814">
        <ele>102.5177002</ele>
        <time>2012-11-08T13:40:15Z</time>
      </trkpt>
      <trkpt lat="48.39745" lon="2.5181">
        <ele>104.4404297</ele>
        <time>2012-11-08T13:40:29Z</time>
      </trkpt>
      <trkpt lat="48.39737" lon="2.51802">
        <ele>107.8050537</ele>
        <time>2012-11-08T13:40:44Z</time>
      </trkpt>
      <trkpt lat="48.39733" lon="2.51787">
        <ele>108.7662354</ele>
        <time>2012-11-08T13:41:24Z</time>
      </trkpt>
      <trkpt lat="48.39723" lon="2.51785">
        <ele>110.6888428</ele>
        <time>2012-11-08T13:41:40Z</time>
      </trkpt>
      <trkpt lat="48.39713" lon="2.51769">
        <ele>111.1695557</ele>
        <time>2012-11-08T13:42:11Z</time>
      </trkpt>
      <trkpt lat="48.39706" lon="2.51748">
        <ele>108.2856445</ele>
        <time>2012-11-08T13:42:28Z</time>
      </trkpt>
      <trkpt lat="48.39702" lon="2.51732">
        <ele>108.7662354</ele>
        <time>2012-11-08T13:42:44Z</time>
      </trkpt>
      <trkpt lat="48.39696" lon="2.51717">
        <ele>107.3243408</ele>
        <time>2012-11-08T13:42:57Z</time>
      </trkpt>
      <trkpt lat="48.39694" lon="2.51713">
        <ele>107.8050537</ele>
        <time>2012-11-08T13:43:09Z</time>
      </trkpt>
      <trkpt lat="48.39686" lon="2.51701">
        <ele>109.7276611</ele>
        <time>2012-11-08T13:43:27Z</time>
      </trkpt>
      <trkpt lat="48.39684" lon="2.51708">
        <ele>109.7276611</ele>
        <time>2012-11-08T13:43:50Z</time>
      </trkpt>
      <trkpt lat="48.39679" lon="2.51697">
        <ele>113.0922852</ele>
        <time>2012-11-08T13:44:09Z</time>
      </trkpt>
      <trkpt lat="48.39664" lon="2.51679">
        <ele>115.4956055</ele>
        <time>2012-11-08T13:44:37Z</time>
      </trkpt>
      <trkpt lat="48.39651" lon="2.5167">
        <ele>115.0148926</ele>
        <time>2012-11-08T13:44:51Z</time>
      </trkpt>
      <trkpt lat="48.39647" lon="2.51671">
        <ele>114.0535889</ele>
        <time>2012-11-08T13:46:22Z</time>
      </trkpt>
      <trkpt lat="48.39643" lon="2.51669">
        <ele>111.6502686</ele>
        <time>2012-11-08T13:47:40Z</time>
      </trkpt>
      <trkpt lat="48.39651" lon="2.5168">
        <ele>111.6502686</ele>
        <time>2012-11-08T13:48:06Z</time>
      </trkpt>
      <trkpt lat="48.39643" lon="2.51667">
        <ele>111.6502686</ele>
        <time>2012-11-08T13:49:28Z</time>
      </trkpt>
      <trkpt lat="48.39631" lon="2.51675">
        <ele>113.0922852</ele>
        <time>2012-11-08T13:49:45Z</time>
      </trkpt>
      <trkpt lat="48.39619" lon="2.51672">
        <ele>113.0922852</ele>
        <time>2012-11-08T13:49:59Z</time>
      </trkpt>
      <trkpt lat="48.39608" lon="2.5168">
        <ele>113.0922852</ele>
        <time>2012-11-08T13:50:14Z</time>
      </trkpt>
      <trkpt lat="48.39605" lon="2.51694">
        <ele>115.0148926</ele>
        <time>2012-11-08T13:50:25Z</time>
      </trkpt>
      <trkpt lat="48.39603" lon="2.51717">
        <ele>115.9761963</ele>
        <time>2012-11-08T13:50:41Z</time>
      </trkpt>
      <trkpt lat="48.39604" lon="2.51748">
        <ele>116.4567871</ele>
        <time>2012-11-08T13:51:01Z</time>
      </trkpt>
      <trkpt lat="48.396" lon="2.51758">
        <ele>117.4182129</ele>
        <time>2012-11-08T13:51:08Z</time>
      </trkpt>
      <trkpt lat="48.39595" lon="2.51773">
        <ele>115.9761963</ele>
        <time>2012-11-08T13:51:27Z</time>
      </trkpt>
      <trkpt lat="48.39595" lon="2.51786">
        <ele>112.6115723</ele>
        <time>2012-11-08T13:51:36Z</time>
      </trkpt>
      <trkpt lat="48.39584" lon="2.51792">
        <ele>110.208252</ele>
        <time>2012-11-08T13:51:57Z</time>
      </trkpt>
      <trkpt lat="48.39578" lon="2.51784">
        <ele>109.7276611</ele>
        <time>2012-11-08T13:52:11Z</time>
      </trkpt>
      <trkpt lat="48.39576" lon="2.51798">
        <ele>107.8050537</ele>
        <time>2012-11-08T13:52:33Z</time>
      </trkpt>
      <trkpt lat="48.39566" lon="2.518">
        <ele>104.9210205</ele>
        <time>2012-11-08T13:52:50Z</time>
      </trkpt>
      <trkpt lat="48.39565" lon="2.51799">
        <ele>104.9210205</ele>
        <time>2012-11-08T13:52:51Z</time>
      </trkpt>
      <trkpt lat="48.39554" lon="2.51802">
        <ele>103.9597168</ele>
        <time>2012-11-08T13:53:09Z</time>
      </trkpt>
      <trkpt lat="48.39549" lon="2.51819">
        <ele>106.8436279</ele>
        <time>2012-11-08T13:53:27Z</time>
      </trkpt>
      <trkpt lat="48.39546" lon="2.51841">
        <ele>109.7276611</ele>
        <time>2012-11-08T13:53:46Z</time>
      </trkpt>
      <trkpt lat="48.39541" lon="2.51862">
        <ele>109.7276611</ele>
        <time>2012-11-08T13:54:05Z</time>
      </trkpt>
      <trkpt lat="48.3954" lon="2.5188">
        <ele>109.2469482</ele>
        <time>2012-11-08T13:54:30Z</time>
      </trkpt>
      <trkpt lat="48.39539" lon="2.51898">
        <ele>110.208252</ele>
        <time>2012-11-08T13:54:45Z</time>
      </trkpt>
      <trkpt lat="48.39539" lon="2.51917">
        <ele>113.0922852</ele>
        <time>2012-11-08T13:55:04Z</time>
      </trkpt>
      <trkpt lat="48.39534" lon="2.51936">
        <ele>115.9761963</ele>
        <time>2012-11-08T13:55:20Z</time>
      </trkpt>
      <trkpt lat="48.39533" lon="2.51936">
        <ele>115.9761963</ele>
        <time>2012-11-08T13:55:21Z</time>
      </trkpt>
      <trkpt lat="48.39532" lon="2.51936">
        <ele>115.4956055</ele>
        <time>2012-11-08T13:55:22Z</time>
      </trkpt>
      <trkpt lat="48.39518" lon="2.51938">
        <ele>115.0148926</ele>
        <time>2012-11-08T13:55:40Z</time>
      </trkpt>
      <trkpt lat="48.39508" lon="2.51936">
        <ele>112.1309814</ele>
        <time>2012-11-08T13:56:02Z</time>
      </trkpt>
      <trkpt lat="48.39511" lon="2.51947">
        <ele>109.7276611</ele>
        <time>2012-11-08T13:56:22Z</time>
      </trkpt>
      <trkpt lat="48.39503" lon="2.51952">
        <ele>106.3630371</ele>
        <time>2012-11-08T13:56:34Z</time>
      </trkpt>
      <trkpt lat="48.39494" lon="2.51967">
        <ele>105.8824463</ele>
        <time>2012-11-08T13:56:53Z</time>
      </trkpt>
      <trkpt lat="48.39497" lon="2.51969">
        <ele>107.8050537</ele>
        <time>2012-11-08T13:57:08Z</time>
      </trkpt>
      <trkpt lat="48.39499" lon="2.51971">
        <ele>111.1695557</ele>
        <time>2012-11-08T13:57:19Z</time>
      </trkpt>
      <trkpt lat="48.39506" lon="2.51988">
        <ele>113.0922852</ele>
        <time>2012-11-08T13:57:38Z</time>
      </trkpt>
      <trkpt lat="48.39501" lon="2.52009">
        <ele>115.4956055</ele>
        <time>2012-11-08T13:57:58Z</time>
      </trkpt>
      <trkpt lat="48.39503" lon="2.5203">
        <ele>114.0535889</ele>
        <time>2012-11-08T13:58:20Z</time>
      </trkpt>
      <trkpt lat="48.395" lon="2.52049">
        <ele>114.5341797</ele>
        <time>2012-11-08T13:58:36Z</time>
      </trkpt>
      <trkpt lat="48.39498" lon="2.52072">
        <ele>115.0148926</ele>
        <time>2012-11-08T13:58:53Z</time>
      </trkpt>
      <trkpt lat="48.39502" lon="2.52087">
        <ele>114.0535889</ele>
        <time>2012-11-08T13:59:12Z</time>
      </trkpt>
      <trkpt lat="48.39495" lon="2.52098">
        <ele>112.6115723</ele>
        <time>2012-11-08T13:59:26Z</time>
      </trkpt>
      <trkpt lat="48.39479" lon="2.52119">
        <ele>113.572998</ele>
        <time>2012-11-08T13:59:45Z</time>
      </trkpt>
      <trkpt lat="48.39467" lon="2.5215">
        <ele>114.0535889</ele>
        <time>2012-11-08T14:00:01Z</time>
      </trkpt>
      <trkpt lat="48.39458" lon="2.52184">
        <ele>115.0148926</ele>
        <time>2012-11-08T14:00:20Z</time>
      </trkpt>
      <trkpt lat="48.39449" lon="2.52202">
        <ele>114.0535889</ele>
        <time>2012-11-08T14:00:39Z</time>
      </trkpt>
      <trkpt lat="48.39436" lon="2.52212">
        <ele>113.0922852</ele>
        <time>2012-11-08T14:00:55Z</time>
      </trkpt>
      <trkpt lat="48.39426" lon="2.52217">
        <ele>113.0922852</ele>
        <time>2012-11-08T14:01:12Z</time>
      </trkpt>
      <trkpt lat="48.39412" lon="2.52218">
        <ele>112.6115723</ele>
        <time>2012-11-08T14:01:29Z</time>
      </trkpt>
      <trkpt lat="48.39403" lon="2.52217">
        <ele>113.0922852</ele>
        <time>2012-11-08T14:01:38Z</time>
      </trkpt>
      <trkpt lat="48.39401" lon="2.52215">
        <ele>113.0922852</ele>
        <time>2012-11-08T14:01:40Z</time>
      </trkpt>
      <trkpt lat="48.39384" lon="2.5222">
        <ele>114.5341797</ele>
        <time>2012-11-08T14:01:59Z</time>
      </trkpt>
      <trkpt lat="48.39377" lon="2.5223">
        <ele>116.9375</ele>
        <time>2012-11-08T14:02:18Z</time>
      </trkpt>
      <trkpt lat="48.39375" lon="2.52249">
        <ele>117.8988037</ele>
        <time>2012-11-08T14:02:34Z</time>
      </trkpt>
      <trkpt lat="48.39371" lon="2.5227">
        <ele>117.8988037</ele>
        <time>2012-11-08T14:02:47Z</time>
      </trkpt>
      <trkpt lat="48.39371" lon="2.52272">
        <ele>118.3793945</ele>
        <time>2012-11-08T14:02:48Z</time>
      </trkpt>
      <trkpt lat="48.3937" lon="2.52277">
        <ele>118.3793945</ele>
        <time>2012-11-08T14:02:52Z</time>
      </trkpt>
      <trkpt lat="48.39367" lon="2.52281">
        <ele>117.8988037</ele>
        <time>2012-11-08T14:02:56Z</time>
      </trkpt>
      <trkpt lat="48.39366" lon="2.52296">
        <ele>117.8988037</ele>
        <time>2012-11-08T14:03:09Z</time>
      </trkpt>
      <trkpt lat="48.3936" lon="2.52314">
        <ele>115.4956055</ele>
        <time>2012-11-08T14:03:23Z</time>
      </trkpt>
      <trkpt lat="48.39361" lon="2.52336">
        <ele>114.0535889</ele>
        <time>2012-11-08T14:03:42Z</time>
      </trkpt>
      <trkpt lat="48.39363" lon="2.52354">
        <ele>111.6502686</ele>
        <time>2012-11-08T14:03:59Z</time>
      </trkpt>
      <trkpt lat="48.39357" lon="2.52379">
        <ele>108.2856445</ele>
        <time>2012-11-08T14:04:28Z</time>
      </trkpt>
      <trkpt lat="48.39358" lon="2.52408">
        <ele>106.3630371</ele>
        <time>2012-11-08T14:04:50Z</time>
      </trkpt>
      <trkpt lat="48.39361" lon="2.52438">
        <ele>105.8824463</ele>
        <time>2012-11-08T14:05:08Z</time>
      </trkpt>
      <trkpt lat="48.3937" lon="2.52456">
        <ele>107.3243408</ele>
        <time>2012-11-08T14:05:26Z</time>
      </trkpt>
      <trkpt lat="48.39384" lon="2.5246">
        <ele>110.6888428</ele>
        <time>2012-11-08T14:05:42Z</time>
      </trkpt>
      <trkpt lat="48.39385" lon="2.52459">
        <ele>111.1695557</ele>
        <time>2012-11-08T14:05:48Z</time>
      </trkpt>
      <trkpt lat="48.39386" lon="2.52474">
        <ele>111.1695557</ele>
        <time>2012-11-08T14:05:56Z</time>
      </trkpt>
      <trkpt lat="48.39383" lon="2.52493">
        <ele>113.572998</ele>
        <time>2012-11-08T14:06:16Z</time>
      </trkpt>
      <trkpt lat="48.39395" lon="2.52499">
        <ele>115.4956055</ele>
        <time>2012-11-08T14:06:36Z</time>
      </trkpt>
      <trkpt lat="48.39396" lon="2.52501">
        <ele>115.4956055</ele>
        <time>2012-11-08T14:06:38Z</time>
      </trkpt>
      <trkpt lat="48.39404" lon="2.52519">
        <ele>117.4182129</ele>
        <time>2012-11-08T14:06:59Z</time>
      </trkpt>
      <trkpt lat="48.39406" lon="2.5253">
        <ele>115.4956055</ele>
        <time>2012-11-08T14:07:17Z</time>
      </trkpt>
      <trkpt lat="48.39405" lon="2.52549">
        <ele>117.4182129</ele>
        <time>2012-11-08T14:07:30Z</time>
      </trkpt>
      <trkpt lat="48.39404" lon="2.52576">
        <ele>116.9375</ele>
        <time>2012-11-08T14:07:48Z</time>
      </trkpt>
      <trkpt lat="48.39399" lon="2.52611">
        <ele>115.9761963</ele>
        <time>2012-11-08T14:08:10Z</time>
      </trkpt>
      <trkpt lat="48.3939" lon="2.52631">
        <ele>113.572998</ele>
        <time>2012-11-08T14:08:21Z</time>
      </trkpt>
      <trkpt lat="48.39387" lon="2.52647">
        <ele>112.6115723</ele>
        <time>2012-11-08T14:08:30Z</time>
      </trkpt>
      <trkpt lat="48.39386" lon="2.52674">
        <ele>109.2469482</ele>
        <time>2012-11-08T14:08:48Z</time>
      </trkpt>
      <trkpt lat="48.39386" lon="2.52677">
        <ele>108.2856445</ele>
        <time>2012-11-08T14:08:50Z</time>
      </trkpt>
      <trkpt lat="48.39377" lon="2.52699">
        <ele>106.8436279</ele>
        <time>2012-11-08T14:09:11Z</time>
      </trkpt>
      <trkpt lat="48.39376" lon="2.52713">
        <ele>110.208252</ele>
        <time>2012-11-08T14:09:26Z</time>
      </trkpt>
      <trkpt lat="48.39361" lon="2.52719">
        <ele>110.208252</ele>
        <time>2012-11-08T14:09:44Z</time>
      </trkpt>
      <trkpt lat="48.39357" lon="2.5275">
        <ele>109.7276611</ele>
        <time>2012-11-08T14:10:05Z</time>
      </trkpt>
      <trkpt lat="48.39348" lon="2.52766">
        <ele>109.7276611</ele>
        <time>2012-11-08T14:10:23Z</time>
      </trkpt>
      <trkpt lat="48.3934" lon="2.52775">
        <ele>108.7662354</ele>
        <time>2012-11-08T14:10:37Z</time>
      </trkpt>
      <trkpt lat="48.39325" lon="2.52777">
        <ele>109.7276611</ele>
        <time>2012-11-08T14:10:56Z</time>
      </trkpt>
      <trkpt lat="48.3931" lon="2.52787">
        <ele>112.6115723</ele>
        <time>2012-11-08T14:11:17Z</time>
      </trkpt>
      <trkpt lat="48.393" lon="2.52792">
        <ele>116.4567871</ele>
        <time>2012-11-08T14:11:32Z</time>
      </trkpt>
      <trkpt lat="48.39296" lon="2.52791">
        <ele>119.3408203</ele>
        <time>2012-11-08T14:11:49Z</time>
      </trkpt>
      <trkpt lat="48.3928" lon="2.52785">
        <ele>119.8214111</ele>
        <time>2012-11-08T14:12:01Z</time>
      </trkpt>
      <trkpt lat="48.39261" lon="2.52765">
        <ele>120.302124</ele>
        <time>2012-11-08T14:12:23Z</time>
      </trkpt>
      <trkpt lat="48.39248" lon="2.52751">
        <ele>119.8214111</ele>
        <time>2012-11-08T14:12:42Z</time>
      </trkpt>
      <trkpt lat="48.39235" lon="2.52744">
        <ele>115.9761963</ele>
        <time>2012-11-08T14:12:58Z</time>
      </trkpt>
      <trkpt lat="48.39235" lon="2.52744">
        <ele>115.9761963</ele>
        <time>2012-11-08T14:12:59Z</time>
      </trkpt>
      <trkpt lat="48.39229" lon="2.52744">
        <ele>112.6115723</ele>
        <time>2012-11-08T14:13:13Z</time>
      </trkpt>
      <trkpt lat="48.39208" lon="2.52737">
        <ele>110.208252</ele>
        <time>2012-11-08T14:13:36Z</time>
      </trkpt>
      <trkpt lat="48.39204" lon="2.52737">
        <ele>108.7662354</ele>
        <time>2012-11-08T14:13:41Z</time>
      </trkpt>
      <trkpt lat="48.39188" lon="2.52733">
        <ele>105.4017334</ele>
        <time>2012-11-08T14:13:55Z</time>
      </trkpt>
      <trkpt lat="48.3918" lon="2.5273">
        <ele>102.998291</ele>
        <time>2012-11-08T14:14:18Z</time>
      </trkpt>
      <trkpt lat="48.39153" lon="2.52728">
        <ele>102.5177002</ele>
        <time>2012-11-08T14:15:35Z</time>
      </trkpt>
      <trkpt lat="48.39144" lon="2.52734">
        <ele>104.9210205</ele>
        <time>2012-11-08T14:15:53Z</time>
      </trkpt>
      <trkpt lat="48.39142" lon="2.52735">
        <ele>105.8824463</ele>
        <time>2012-11-08T14:15:57Z</time>
      </trkpt>
      <trkpt lat="48.39133" lon="2.52743">
        <ele>107.8050537</ele>
        <time>2012-11-08T14:16:16Z</time>
      </trkpt>
      <trkpt lat="48.39126" lon="2.52765">
        <ele>110.208252</ele>
        <time>2012-11-08T14:16:41Z</time>
      </trkpt>
      <trkpt lat="48.39136" lon="2.52794">
        <ele>113.572998</ele>
        <time>2012-11-08T14:17:06Z</time>
      </trkpt>
      <trkpt lat="48.39137" lon="2.52808">
        <ele>115.4956055</ele>
        <time>2012-11-08T14:17:29Z</time>
      </trkpt>
      <trkpt lat="48.39137" lon="2.52821">
        <ele>118.8601074</ele>
        <time>2012-11-08T14:17:51Z</time>
      </trkpt>
      <trkpt lat="48.3913" lon="2.52839">
        <ele>120.7828369</ele>
        <time>2012-11-08T14:18:05Z</time>
      </trkpt>
      <trkpt lat="48.39119" lon="2.52845">
        <ele>122.7054443</ele>
        <time>2012-11-08T14:18:16Z</time>
      </trkpt>
      <trkpt lat="48.39107" lon="2.52849">
        <ele>123.1861572</ele>
        <time>2012-11-08T14:18:31Z</time>
      </trkpt>
      <trkpt lat="48.39093" lon="2.52851">
        <ele>122.7054443</ele>
        <time>2012-11-08T14:18:49Z</time>
      </trkpt>
      <trkpt lat="48.39089" lon="2.5286">
        <ele>121.7441406</ele>
        <time>2012-11-08T14:19:05Z</time>
      </trkpt>
      <trkpt lat="48.39089" lon="2.52869">
        <ele>122.2247314</ele>
        <time>2012-11-08T14:19:13Z</time>
      </trkpt>
      <trkpt lat="48.39088" lon="2.52893">
        <ele>121.7441406</ele>
        <time>2012-11-08T14:19:34Z</time>
      </trkpt>
      <trkpt lat="48.39089" lon="2.5291">
        <ele>123.1861572</ele>
        <time>2012-11-08T14:19:57Z</time>
      </trkpt>
      <trkpt lat="48.39087" lon="2.52922">
        <ele>122.7054443</ele>
        <time>2012-11-08T14:20:10Z</time>
      </trkpt>
      <trkpt lat="48.39079" lon="2.5293">
        <ele>121.2635498</ele>
        <time>2012-11-08T14:20:27Z</time>
      </trkpt>
      <trkpt lat="48.39072" lon="2.52946">
        <ele>120.7828369</ele>
        <time>2012-11-08T14:20:52Z</time>
      </trkpt>
      <trkpt lat="48.39071" lon="2.52968">
        <ele>121.7441406</ele>
        <time>2012-11-08T14:21:08Z</time>
      </trkpt>
      <trkpt lat="48.39067" lon="2.52983">
        <ele>120.302124</ele>
        <time>2012-11-08T14:21:22Z</time>
      </trkpt>
      <trkpt lat="48.39067" lon="2.52997">
        <ele>119.8214111</ele>
        <time>2012-11-08T14:21:36Z</time>
      </trkpt>
      <trkpt lat="48.39065" lon="2.53012">
        <ele>118.3793945</ele>
        <time>2012-11-08T14:21:52Z</time>
      </trkpt>
      <trkpt lat="48.39064" lon="2.53026">
        <ele>117.8988037</ele>
        <time>2012-11-08T14:22:13Z</time>
      </trkpt>
      <trkpt lat="48.39064" lon="2.53034">
        <ele>118.8601074</ele>
        <time>2012-11-08T14:22:34Z</time>
      </trkpt>
      <trkpt lat="48.39061" lon="2.53045">
        <ele>118.8601074</ele>
        <time>2012-11-08T14:22:48Z</time>
      </trkpt>
      <trkpt lat="48.39061" lon="2.5306">
        <ele>119.3408203</ele>
        <time>2012-11-08T14:23:01Z</time>
      </trkpt>
      <trkpt lat="48.39063" lon="2.53077">
        <ele>118.8601074</ele>
        <time>2012-11-08T14:23:18Z</time>
      </trkpt>
      <trkpt lat="48.39066" lon="2.53093">
        <ele>117.8988037</ele>
        <time>2012-11-08T14:23:36Z</time>
      </trkpt>
      <trkpt lat="48.39065" lon="2.53117">
        <ele>117.4182129</ele>
        <time>2012-11-08T14:23:53Z</time>
      </trkpt>
      <trkpt lat="48.3906" lon="2.53137">
        <ele>118.3793945</ele>
        <time>2012-11-08T14:24:12Z</time>
      </trkpt>
      <trkpt lat="48.39048" lon="2.53164">
        <ele>117.8988037</ele>
        <time>2012-11-08T14:24:30Z</time>
      </trkpt>
      <trkpt lat="48.39043" lon="2.53182">
        <ele>118.3793945</ele>
        <time>2012-11-08T14:24:45Z</time>
      </trkpt>
      <trkpt lat="48.39042" lon="2.53203">
        <ele>115.0148926</ele>
        <time>2012-11-08T14:25:06Z</time>
      </trkpt>
      <trkpt lat="48.39042" lon="2.53221">
        <ele>112.6115723</ele>
        <time>2012-11-08T14:25:26Z</time>
      </trkpt>
      <trkpt lat="48.39042" lon="2.53223">
        <ele>109.2469482</ele>
        <time>2012-11-08T14:25:41Z</time>
      </trkpt>
      <trkpt lat="48.39044" lon="2.53237">
        <ele>107.3243408</ele>
        <time>2012-11-08T14:25:59Z</time>
      </trkpt>
      <trkpt lat="48.3904" lon="2.53244">
        <ele>107.8050537</ele>
        <time>2012-11-08T14:26:22Z</time>
      </trkpt>
      <trkpt lat="48.39036" lon="2.53243">
        <ele>107.3243408</ele>
        <time>2012-11-08T14:26:26Z</time>
      </trkpt>
      <trkpt lat="48.39031" lon="2.53245">
        <ele>107.3243408</ele>
        <time>2012-11-08T14:26:30Z</time>
      </trkpt>
      <trkpt lat="48.39015" lon="2.5325">
        <ele>105.8824463</ele>
        <time>2012-11-08T14:26:47Z</time>
      </trkpt>
      <trkpt lat="48.39002" lon="2.5325">
        <ele>105.4017334</ele>
        <time>2012-11-08T14:27:03Z</time>
      </trkpt>
      <trkpt lat="48.38997" lon="2.53256">
        <ele>104.4404297</ele>
        <time>2012-11-08T14:27:18Z</time>
      </trkpt>
      <trkpt lat="48.38991" lon="2.53262">
        <ele>102.998291</ele>
        <time>2012-11-08T14:27:38Z</time>
      </trkpt>
      <trkpt lat="48.38986" lon="2.53272">
        <ele>101.5563965</ele>
        <time>2012-11-08T14:27:49Z</time>
      </trkpt>
      <trkpt lat="48.38985" lon="2.53272">
        <ele>101.0756836</ele>
        <time>2012-11-08T14:28:04Z</time>
      </trkpt>
      <trkpt lat="48.38983" lon="2.53273">
        <ele>99.1530762</ele>
        <time>2012-11-08T14:28:17Z</time>
      </trkpt>
      <trkpt lat="48.3898" lon="2.53268">
        <ele>100.5950928</ele>
        <time>2012-11-08T14:28:34Z</time>
      </trkpt>
      <trkpt lat="48.38981" lon="2.53262">
        <ele>102.0371094</ele>
        <time>2012-11-08T14:28:50Z</time>
      </trkpt>
      <trkpt lat="48.38978" lon="2.5326">
        <ele>101.5563965</ele>
        <time>2012-11-08T14:29:34Z</time>
      </trkpt>
      <trkpt lat="48.38979" lon="2.53252">
        <ele>102.5177002</ele>
        <time>2012-11-08T14:30:02Z</time>
      </trkpt>
      <trkpt lat="48.3898" lon="2.53251">
        <ele>104.4404297</ele>
        <time>2012-11-08T14:30:42Z</time>
      </trkpt>
      <trkpt lat="48.3898" lon="2.53251">
        <ele>102.998291</ele>
        <time>2012-11-08T14:30:46Z</time>
      </trkpt>
      <trkpt lat="48.3898" lon="2.53254">
        <ele>102.5177002</ele>
        <time>2012-11-08T14:31:36Z</time>
      </trkpt>
      <trkpt lat="48.3898" lon="2.53254">
        <ele>103.4790039</ele>
        <time>2012-11-08T14:31:47Z</time>
      </trkpt>
      <trkpt lat="48.38979" lon="2.53251">
        <ele>103.9597168</ele>
        <time>2012-11-08T14:32:27Z</time>
      </trkpt>
      <trkpt lat="48.3898" lon="2.53252">
        <ele>104.9210205</ele>
        <time>2012-11-08T14:33:05Z</time>
      </trkpt>
      <trkpt lat="48.38979" lon="2.53243">
        <ele>106.3630371</ele>
        <time>2012-11-08T14:33:35Z</time>
      </trkpt>
      <trkpt lat="48.38979" lon="2.53242">
        <ele>106.3630371</ele>
        <time>2012-11-08T14:33:36Z</time>
      </trkpt>
      <trkpt lat="48.38974" lon="2.53244">
        <ele>107.3243408</ele>
        <time>2012-11-08T14:33:40Z</time>
      </trkpt>
      <trkpt lat="48.38973" lon="2.53233">
        <ele>109.2469482</ele>
        <time>2012-11-08T14:33:56Z</time>
      </trkpt>
      <trkpt lat="48.38973" lon="2.53233">
        <ele>109.2469482</ele>
        <time>2012-11-08T14:34:13Z</time>
      </trkpt>
      <trkpt lat="48.38973" lon="2.53233">
        <ele>111.1695557</ele>
        <time>2012-11-08T14:34:28Z</time>
      </trkpt>
      <trkpt lat="48.38973" lon="2.53233">
        <ele>111.6502686</ele>
        <time>2012-11-08T14:34:47Z</time>
      </trkpt>
      <trkpt lat="48.38973" lon="2.53233">
        <ele>111.1695557</ele>
        <time>2012-11-08T14:35:14Z</time>
      </trkpt>
      <trkpt lat="48.38973" lon="2.53233">
        <ele>108.2856445</ele>
        <time>2012-11-08T14:35:36Z</time>
      </trkpt>
      <trkpt lat="48.38973" lon="2.53233">
        <ele>105.4017334</ele>
        <time>2012-11-08T14:35:53Z</time>
      </trkpt>
      <trkpt lat="48.38973" lon="2.53233">
        <ele>102.0371094</ele>
        <time>2012-11-08T14:36:16Z</time>
      </trkpt>
      <trkpt lat="48.38973" lon="2.53233">
        <ele>100.5950928</ele>
        <time>2012-11-08T14:36:39Z</time>
      </trkpt>
      <trkpt lat="48.38973" lon="2.53233">
        <ele>97.2304688</ele>
        <time>2012-11-08T14:37:06Z</time>
      </trkpt>
      <trkpt lat="48.38973" lon="2.53233">
        <ele>94.8271484</ele>
        <time>2012-11-08T14:37:32Z</time>
      </trkpt>
      <trkpt lat="48.38973" lon="2.53233">
        <ele>91.9432373</ele>
        <time>2012-11-08T14:37:52Z</time>
      </trkpt>
      <trkpt lat="48.38973" lon="2.53233">
        <ele>89.0593262</ele>
        <time>2012-11-08T14:38:13Z</time>
      </trkpt>
      <trkpt lat="48.38973" lon="2.53233">
        <ele>86.6560059</ele>
        <time>2012-11-08T14:38:21Z</time>
      </trkpt>
      <trkpt lat="48.38973" lon="2.53233">
        <ele>83.7719727</ele>
        <time>2012-11-08T14:38:47Z</time>
      </trkpt>
      <trkpt lat="48.38932" lon="2.531">
        <ele>79.9266357</ele>
        <time>2012-11-08T14:39:04Z</time>
      </trkpt>
      <trkpt lat="48.38932" lon="2.531">
        <ele>80.4074707</ele>
        <time>2012-11-08T14:39:11Z</time>
      </trkpt>
      <trkpt lat="48.38932" lon="2.531">
        <ele>80.8881836</ele>
        <time>2012-11-08T14:39:31Z</time>
      </trkpt>
      <trkpt lat="48.38932" lon="2.531">
        <ele>79.9266357</ele>
        <time>2012-11-08T14:40:16Z</time>
      </trkpt>
      <trkpt lat="48.38932" lon="2.531">
        <ele>83.2913818</ele>
        <time>2012-11-08T14:41:17Z</time>
      </trkpt>
      <trkpt lat="48.38932" lon="2.531">
        <ele>84.2526855</ele>
        <time>2012-11-08T14:41:33Z</time>
      </trkpt>
      <trkpt lat="48.38929" lon="2.53084">
        <ele>84.7333984</ele>
        <time>2012-11-08T14:41:37Z</time>
      </trkpt>
      <trkpt lat="48.38929" lon="2.53084">
        <ele>86.175293</ele>
        <time>2012-11-08T14:41:42Z</time>
      </trkpt>
      <trkpt lat="48.38929" lon="2.53084">
        <ele>89.539917</ele>
        <time>2012-11-08T14:41:57Z</time>
      </trkpt>
      <trkpt lat="48.38929" lon="2.53084">
        <ele>92.904541</ele>
        <time>2012-11-08T14:42:16Z</time>
      </trkpt>
      <trkpt lat="48.38929" lon="2.53084">
        <ele>96.2692871</ele>
        <time>2012-11-08T14:42:37Z</time>
      </trkpt>
      <trkpt lat="48.38929" lon="2.53084">
        <ele>99.1530762</ele>
        <time>2012-11-08T14:42:52Z</time>
      </trkpt>
      <trkpt lat="48.38929" lon="2.53084">
        <ele>100.5950928</ele>
        <time>2012-11-08T14:43:09Z</time>
      </trkpt>
      <trkpt lat="48.38929" lon="2.53084">
        <ele>102.998291</ele>
        <time>2012-11-08T14:43:24Z</time>
      </trkpt>
      <trkpt lat="48.38929" lon="2.53084">
        <ele>104.9210205</ele>
        <time>2012-11-08T14:43:38Z</time>
      </trkpt>
      <trkpt lat="48.38929" lon="2.53084">
        <ele>107.3243408</ele>
        <time>2012-11-08T14:43:49Z</time>
      </trkpt>
      <trkpt lat="48.38929" lon="2.53084">
        <ele>109.2469482</ele>
        <time>2012-11-08T14:44:01Z</time>
      </trkpt>
      <trkpt lat="48.38929" lon="2.53084">
        <ele>111.1695557</ele>
        <time>2012-11-08T14:44:23Z</time>
      </trkpt>
      <trkpt lat="48.38875" lon="2.52986">
        <ele>113.572998</ele>
        <time>2012-11-08T14:44:36Z</time>
      </trkpt>
      <trkpt lat="48.38875" lon="2.52986">
        <ele>114.0535889</ele>
        <time>2012-11-08T14:44:53Z</time>
      </trkpt>
      <trkpt lat="48.38875" lon="2.52986">
        <ele>114.0535889</ele>
        <time>2012-11-08T14:45:14Z</time>
      </trkpt>
      <trkpt lat="48.38875" lon="2.52986">
        <ele>112.6115723</ele>
        <time>2012-11-08T14:46:02Z</time>
      </trkpt>
      <trkpt lat="48.38875" lon="2.52986">
        <ele>112.6115723</ele>
        <time>2012-11-08T14:46:18Z</time>
      </trkpt>
      <trkpt lat="48.38875" lon="2.52986">
        <ele>111.6502686</ele>
        <time>2012-11-08T14:46:38Z</time>
      </trkpt>
      <trkpt lat="48.38875" lon="2.52986">
        <ele>111.6502686</ele>
        <time>2012-11-08T14:46:58Z</time>
      </trkpt>
      <trkpt lat="48.38875" lon="2.52986">
        <ele>111.1695557</ele>
        <time>2012-11-08T14:47:14Z</time>
      </trkpt>
      <trkpt lat="48.38875" lon="2.52986">
        <ele>111.1695557</ele>
        <time>2012-11-08T14:47:46Z</time>
      </trkpt>
      <trkpt lat="48.38875" lon="2.52986">
        <ele>111.1695557</ele>
        <time>2012-11-08T14:48:40Z</time>
      </trkpt>
      <trkpt lat="48.38875" lon="2.52986">
        <ele>110.208252</ele>
        <time>2012-11-08T14:49:24Z</time>
      </trkpt>
      <trkpt lat="48.38875" lon="2.52986">
        <ele>107.8050537</ele>
        <time>2012-11-08T14:49:46Z</time>
      </trkpt>
      <trkpt lat="48.38875" lon="2.52986">
        <ele>107.8050537</ele>
        <time>2012-11-08T14:50:03Z</time>
      </trkpt>
      <trkpt lat="48.3883" lon="2.52851">
        <ele>111.1695557</ele>
        <time>2012-11-08T14:50:22Z</time>
      </trkpt>
      <trkpt lat="48.3883" lon="2.52851">
        <ele>114.0535889</ele>
        <time>2012-11-08T14:50:41Z</time>
      </trkpt>
      <trkpt lat="48.3883" lon="2.52851">
        <ele>115.0148926</ele>
        <time>2012-11-08T14:51:04Z</time>
      </trkpt>
      <trkpt lat="48.3883" lon="2.52851">
        <ele>115.0148926</ele>
        <time>2012-11-08T14:51:27Z</time>
      </trkpt>
      <trkpt lat="48.3883" lon="2.52851">
        <ele>115.0148926</ele>
        <time>2012-11-08T14:51:44Z</time>
      </trkpt>
      <trkpt lat="48.38828" lon="2.52819">
        <ele>115.9761963</ele>
        <time>2012-11-08T14:52:04Z</time>
      </trkpt>
      <trkpt lat="48.38828" lon="2.52819">
        <ele>115.9761963</ele>
        <time>2012-11-08T14:52:09Z</time>
      </trkpt>
      <trkpt lat="48.38827" lon="2.52812">
        <ele>116.4567871</ele>
        <time>2012-11-08T14:52:23Z</time>
      </trkpt>
      <trkpt lat="48.38827" lon="2.52812">
        <ele>115.9761963</ele>
        <time>2012-11-08T14:52:43Z</time>
      </trkpt>
      <trkpt lat="48.38827" lon="2.52812">
        <ele>116.4567871</ele>
        <time>2012-11-08T14:53:01Z</time>
      </trkpt>
      <trkpt lat="48.38827" lon="2.52812">
        <ele>113.0922852</ele>
        <time>2012-11-08T14:53:23Z</time>
      </trkpt>
      <trkpt lat="48.38841" lon="2.52649">
        <ele>110.208252</ele>
        <time>2012-11-08T14:53:44Z</time>
      </trkpt>
      <trkpt lat="48.38841" lon="2.52649">
        <ele>106.8436279</ele>
        <time>2012-11-08T14:53:56Z</time>
      </trkpt>
      <trkpt lat="48.38841" lon="2.52649">
        <ele>103.9597168</ele>
        <time>2012-11-08T14:54:15Z</time>
      </trkpt>
      <trkpt lat="48.38841" lon="2.52649">
        <ele>100.5950928</ele>
        <time>2012-11-08T14:54:30Z</time>
      </trkpt>
      <trkpt lat="48.38841" lon="2.52649">
        <ele>97.7111816</ele>
        <time>2012-11-08T14:54:43Z</time>
      </trkpt>
      <trkpt lat="48.38841" lon="2.52649">
        <ele>94.3465576</ele>
        <time>2012-11-08T14:55:01Z</time>
      </trkpt>
      <trkpt lat="48.38841" lon="2.52649">
        <ele>90.5013428</ele>
        <time>2012-11-08T14:55:14Z</time>
      </trkpt>
      <trkpt lat="48.38841" lon="2.52649">
        <ele>87.1365967</ele>
        <time>2012-11-08T14:55:39Z</time>
      </trkpt>
      <trkpt lat="48.38841" lon="2.52649">
        <ele>84.2526855</ele>
        <time>2012-11-08T14:55:58Z</time>
      </trkpt>
      <trkpt lat="48.38841" lon="2.52649">
        <ele>81.3687744</ele>
        <time>2012-11-08T14:56:19Z</time>
      </trkpt>
      <trkpt lat="48.38841" lon="2.52649">
        <ele>78.0040283</ele>
        <time>2012-11-08T14:56:35Z</time>
      </trkpt>
      <trkpt lat="48.38841" lon="2.52649">
        <ele>74.6395264</ele>
        <time>2012-11-08T14:56:47Z</time>
      </trkpt>
      <trkpt lat="48.38841" lon="2.52649">
        <ele>71.2749023</ele>
        <time>2012-11-08T14:57:05Z</time>
      </trkpt>
      <trkpt lat="48.38841" lon="2.52649">
        <ele>69.8328857</ele>
        <time>2012-11-08T14:57:15Z</time>
      </trkpt>
      <trkpt lat="48.38694" lon="2.52599">
        <ele>69.3522949</ele>
        <time>2012-11-08T14:57:33Z</time>
      </trkpt>
      <trkpt lat="48.38694" lon="2.52599">
        <ele>69.8328857</ele>
        <time>2012-11-08T14:58:08Z</time>
      </trkpt>
      <trkpt lat="48.38694" lon="2.52599">
        <ele>68.3908691</ele>
        <time>2012-11-08T14:58:36Z</time>
      </trkpt>
      <trkpt lat="48.38694" lon="2.52599">
        <ele>67.9102783</ele>
        <time>2012-11-08T14:59:04Z</time>
      </trkpt>
      <trkpt lat="48.38694" lon="2.52599">
        <ele>67.4296875</ele>
        <time>2012-11-08T14:59:31Z</time>
      </trkpt>
      <trkpt lat="48.3869" lon="2.52454">
        <ele>66.9489746</ele>
        <time>2012-11-08T14:59:46Z</time>
      </trkpt>
      <trkpt lat="48.3869" lon="2.52454">
        <ele>66.9489746</ele>
        <time>2012-11-08T15:00:07Z</time>
      </trkpt>
      <trkpt lat="48.3869" lon="2.52454">
        <ele>65.9876709</ele>
        <time>2012-11-08T15:00:36Z</time>
      </trkpt>
      <trkpt lat="48.38695" lon="2.52313">
        <ele>65.9876709</ele>
        <time>2012-11-08T15:01:00Z</time>
      </trkpt>
      <trkpt lat="48.38695" lon="2.52313">
        <ele>65.9876709</ele>
        <time>2012-11-08T15:01:28Z</time>
      </trkpt>
      <trkpt lat="48.38695" lon="2.52313">
        <ele>65.9876709</ele>
        <time>2012-11-08T15:01:43Z</time>
      </trkpt>
      <trkpt lat="48.38714" lon="2.52175">
        <ele>65.5070801</ele>
        <time>2012-11-08T15:02:00Z</time>
      </trkpt>
      <trkpt lat="48.38714" lon="2.52175">
        <ele>65.0263672</ele>
        <time>2012-11-08T15:02:06Z</time>
      </trkpt>
      <trkpt lat="48.38714" lon="2.52175">
        <ele>65.9876709</ele>
        <time>2012-11-08T15:02:17Z</time>
      </trkpt>
      <trkpt lat="48.38714" lon="2.52175">
        <ele>65.0263672</ele>
        <time>2012-11-08T15:02:42Z</time>
      </trkpt>
      <trkpt lat="48.38714" lon="2.52175">
        <ele>65.5070801</ele>
        <time>2012-11-08T15:03:02Z</time>
      </trkpt>
      <trkpt lat="48.38715" lon="2.52163">
        <ele>65.9876709</ele>
        <time>2012-11-08T15:03:19Z</time>
      </trkpt>
      <trkpt lat="48.38753" lon="2.52028">
        <ele>66.4682617</ele>
        <time>2012-11-08T15:03:36Z</time>
      </trkpt>
      <trkpt lat="48.38753" lon="2.52028">
        <ele>65.5070801</ele>
        <time>2012-11-08T15:03:59Z</time>
      </trkpt>
      <trkpt lat="48.38753" lon="2.52028">
        <ele>64.0650635</ele>
        <time>2012-11-08T15:04:25Z</time>
      </trkpt>
      <trkpt lat="48.38753" lon="2.52028">
        <ele>63.5843506</ele>
        <time>2012-11-08T15:04:46Z</time>
      </trkpt>
      <trkpt lat="48.38753" lon="2.52028">
        <ele>63.5843506</ele>
        <time>2012-11-08T15:05:00Z</time>
      </trkpt>
      <trkpt lat="48.38755" lon="2.52022">
        <ele>63.5843506</ele>
        <time>2012-11-08T15:05:05Z</time>
      </trkpt>
      <trkpt lat="48.38767" lon="2.51984">
        <ele>64.0650635</ele>
        <time>2012-11-08T15:05:07Z</time>
      </trkpt>
      <trkpt lat="48.38767" lon="2.51984">
        <ele>63.5843506</ele>
        <time>2012-11-08T15:05:10Z</time>
      </trkpt>
      <trkpt lat="48.38767" lon="2.51984">
        <ele>63.5843506</ele>
        <time>2012-11-08T15:05:25Z</time>
      </trkpt>
      <trkpt lat="48.38767" lon="2.51984">
        <ele>64.0650635</ele>
        <time>2012-11-08T15:07:33Z</time>
      </trkpt>
      <trkpt lat="48.38767" lon="2.51984">
        <ele>63.5843506</ele>
        <time>2012-11-08T15:08:41Z</time>
      </trkpt>
      <trkpt lat="48.38767" lon="2.51984">
        <ele>64.5456543</ele>
        <time>2012-11-08T15:09:56Z</time>
      </trkpt>
      <trkpt lat="48.38767" lon="2.51984">
        <ele>64.0650635</ele>
        <time>2012-11-08T15:11:12Z</time>
      </trkpt>
      <trkpt lat="48.38767" lon="2.51984">
        <ele>63.1036377</ele>
        <time>2012-11-08T15:13:23Z</time>
      </trkpt>
      <trkpt lat="48.38767" lon="2.51984">
        <ele>64.0650635</ele>
        <time>2012-11-08T15:13:45Z</time>
      </trkpt>
      <trkpt lat="48.38796" lon="2.51886">
        <ele>64.0650635</ele>
        <time>2012-11-08T15:13:49Z</time>
      </trkpt>
    </trkseg>
  </trk>
</gpx>